<?xml version="1.0" encoding="UTF-8" standalone="no" ?>
<gpx xmlns="http://www.topografix.com/GPX/1/1" xmlns:xsi="http://www.w3.org/2001/XMLSchema-instance" xsi:schemaLocation="http://www.topografix.com/GPX/1/1 http://www.topografix.com/GPX/1/1/gpx.xsd" version="1.1" creator="VisuGPX - https://www.visugpx.com">
  <metadata>
    <name>SILLANS-LA BRESQUE</name>
    <desc><![CDATA[A la découverte de la Bresque à Sillans la Cascade. Départ de la mairie de Sillans et on longe la rive droite de la Bresque en direction du château de Bresc et on revient par l'autre rive vers la mairie de Sillans. Demande d'autorisation aux propriétaires du château de Bresc pour passer sur la propriété.]]></desc>
  </metadata>
  <trk>
    <name><![CDATA[Tracé actuel: 16 MAI 2017 14:04]]></name>
    <trkseg>
      <trkpt lat="43.57073" lon="6.17803">
        <ele>243.35</ele>
        <time>2017-05-16T12:04:56Z</time>
      </trkpt>
      <trkpt lat="43.57068" lon="6.17806">
        <ele>243.35</ele>
        <time>2017-05-16T12:04:57Z</time>
      </trkpt>
      <trkpt lat="43.57052" lon="6.17813">
        <ele>242.87</ele>
        <time>2017-05-16T12:05:08Z</time>
      </trkpt>
      <trkpt lat="43.57047" lon="6.1782">
        <ele>243.83</ele>
        <time>2017-05-16T12:05:18Z</time>
      </trkpt>
      <trkpt lat="43.57057" lon="6.17821">
        <ele>239.51</ele>
        <time>2017-05-16T12:05:22Z</time>
      </trkpt>
      <trkpt lat="43.57059" lon="6.17821">
        <ele>247.68</ele>
        <time>2017-05-16T12:05:23Z</time>
      </trkpt>
      <trkpt lat="43.57062" lon="6.17821">
        <ele>247.2</ele>
        <time>2017-05-16T12:05:24Z</time>
      </trkpt>
      <trkpt lat="43.57066" lon="6.1782">
        <ele>254.41</ele>
        <time>2017-05-16T12:05:26Z</time>
      </trkpt>
      <trkpt lat="43.57067" lon="6.1782">
        <ele>263.06</ele>
        <time>2017-05-16T12:05:28Z</time>
      </trkpt>
      <trkpt lat="43.57068" lon="6.17821">
        <ele>262.1</ele>
        <time>2017-05-16T12:05:29Z</time>
      </trkpt>
      <trkpt lat="43.57069" lon="6.17821">
        <ele>265.46</ele>
        <time>2017-05-16T12:05:30Z</time>
      </trkpt>
      <trkpt lat="43.5707" lon="6.17821">
        <ele>269.79</ele>
        <time>2017-05-16T12:05:31Z</time>
      </trkpt>
      <trkpt lat="43.57072" lon="6.17822">
        <ele>270.27</ele>
        <time>2017-05-16T12:05:33Z</time>
      </trkpt>
      <trkpt lat="43.57072" lon="6.17822">
        <ele>275.56</ele>
        <time>2017-05-16T12:05:34Z</time>
      </trkpt>
      <trkpt lat="43.57075" lon="6.17822">
        <ele>279.4</ele>
        <time>2017-05-16T12:05:36Z</time>
      </trkpt>
      <trkpt lat="43.57075" lon="6.17822">
        <ele>285.17</ele>
        <time>2017-05-16T12:05:37Z</time>
      </trkpt>
      <trkpt lat="43.57076" lon="6.17822">
        <ele>284.21</ele>
        <time>2017-05-16T12:05:38Z</time>
      </trkpt>
      <trkpt lat="43.57077" lon="6.17822">
        <ele>289.01</ele>
        <time>2017-05-16T12:05:39Z</time>
      </trkpt>
      <trkpt lat="43.57078" lon="6.17825">
        <ele>291.9</ele>
        <time>2017-05-16T12:05:41Z</time>
      </trkpt>
      <trkpt lat="43.57079" lon="6.17828">
        <ele>297.18</ele>
        <time>2017-05-16T12:05:44Z</time>
      </trkpt>
      <trkpt lat="43.5708" lon="6.17829">
        <ele>301.03</ele>
        <time>2017-05-16T12:05:46Z</time>
      </trkpt>
      <trkpt lat="43.5708" lon="6.17829">
        <ele>303.91</ele>
        <time>2017-05-16T12:05:48Z</time>
      </trkpt>
      <trkpt lat="43.5708" lon="6.1783">
        <ele>308.72</ele>
        <time>2017-05-16T12:05:51Z</time>
      </trkpt>
      <trkpt lat="43.57078" lon="6.17828">
        <ele>312.57</ele>
        <time>2017-05-16T12:05:54Z</time>
      </trkpt>
      <trkpt lat="43.57076" lon="6.17826">
        <ele>315.93</ele>
        <time>2017-05-16T12:05:57Z</time>
      </trkpt>
      <trkpt lat="43.57077" lon="6.17823">
        <ele>319.78</ele>
        <time>2017-05-16T12:06:01Z</time>
      </trkpt>
      <trkpt lat="43.5708" lon="6.17826">
        <ele>323.62</ele>
        <time>2017-05-16T12:06:05Z</time>
      </trkpt>
      <trkpt lat="43.57084" lon="6.17826">
        <ele>326.99</ele>
        <time>2017-05-16T12:06:09Z</time>
      </trkpt>
      <trkpt lat="43.57088" lon="6.17822">
        <ele>329.39</ele>
        <time>2017-05-16T12:06:13Z</time>
      </trkpt>
      <trkpt lat="43.57094" lon="6.17821">
        <ele>333.71</ele>
        <time>2017-05-16T12:06:19Z</time>
      </trkpt>
      <trkpt lat="43.57098" lon="6.17822">
        <ele>336.6</ele>
        <time>2017-05-16T12:06:25Z</time>
      </trkpt>
      <trkpt lat="43.57109" lon="6.17821">
        <ele>339.48</ele>
        <time>2017-05-16T12:06:31Z</time>
      </trkpt>
      <trkpt lat="43.57117" lon="6.1782">
        <ele>343.33</ele>
        <time>2017-05-16T12:06:37Z</time>
      </trkpt>
      <trkpt lat="43.57122" lon="6.17822">
        <ele>346.69</ele>
        <time>2017-05-16T12:06:43Z</time>
      </trkpt>
      <trkpt lat="43.57126" lon="6.17824">
        <ele>350.06</ele>
        <time>2017-05-16T12:06:49Z</time>
      </trkpt>
      <trkpt lat="43.5713" lon="6.17825">
        <ele>353.42</ele>
        <time>2017-05-16T12:06:55Z</time>
      </trkpt>
      <trkpt lat="43.57131" lon="6.17825">
        <ele>354.38</ele>
        <time>2017-05-16T12:06:57Z</time>
      </trkpt>
      <trkpt lat="43.57139" lon="6.17826">
        <ele>358.71</ele>
        <time>2017-05-16T12:07:06Z</time>
      </trkpt>
      <trkpt lat="43.57146" lon="6.17825">
        <ele>360.63</ele>
        <time>2017-05-16T12:07:14Z</time>
      </trkpt>
      <trkpt lat="43.57151" lon="6.17822">
        <ele>362.07</ele>
        <time>2017-05-16T12:07:19Z</time>
      </trkpt>
      <trkpt lat="43.57158" lon="6.17822">
        <ele>363.04</ele>
        <time>2017-05-16T12:07:27Z</time>
      </trkpt>
      <trkpt lat="43.57168" lon="6.17821">
        <ele>363.04</ele>
        <time>2017-05-16T12:07:39Z</time>
      </trkpt>
      <trkpt lat="43.57176" lon="6.1782">
        <ele>363.52</ele>
        <time>2017-05-16T12:07:48Z</time>
      </trkpt>
      <trkpt lat="43.57178" lon="6.1782">
        <ele>363.52</ele>
        <time>2017-05-16T12:07:51Z</time>
      </trkpt>
      <trkpt lat="43.57191" lon="6.17825">
        <ele>364</ele>
        <time>2017-05-16T12:08:04Z</time>
      </trkpt>
      <trkpt lat="43.57193" lon="6.17824">
        <ele>364</ele>
        <time>2017-05-16T12:08:08Z</time>
      </trkpt>
      <trkpt lat="43.57198" lon="6.17825">
        <ele>364</ele>
        <time>2017-05-16T12:08:13Z</time>
      </trkpt>
      <trkpt lat="43.57209" lon="6.17824">
        <ele>364.96</ele>
        <time>2017-05-16T12:08:26Z</time>
      </trkpt>
      <trkpt lat="43.57219" lon="6.17825">
        <ele>365.44</ele>
        <time>2017-05-16T12:08:36Z</time>
      </trkpt>
      <trkpt lat="43.57227" lon="6.17826">
        <ele>365.44</ele>
        <time>2017-05-16T12:08:45Z</time>
      </trkpt>
      <trkpt lat="43.57237" lon="6.17828">
        <ele>365.44</ele>
        <time>2017-05-16T12:08:56Z</time>
      </trkpt>
      <trkpt lat="43.57238" lon="6.17828">
        <ele>365.44</ele>
        <time>2017-05-16T12:08:57Z</time>
      </trkpt>
      <trkpt lat="43.57248" lon="6.17825">
        <ele>364.96</ele>
        <time>2017-05-16T12:09:07Z</time>
      </trkpt>
      <trkpt lat="43.57261" lon="6.17821">
        <ele>364.96</ele>
        <time>2017-05-16T12:09:18Z</time>
      </trkpt>
      <trkpt lat="43.5727" lon="6.17815">
        <ele>364.48</ele>
        <time>2017-05-16T12:09:29Z</time>
      </trkpt>
      <trkpt lat="43.57271" lon="6.17814">
        <ele>364.48</ele>
        <time>2017-05-16T12:09:30Z</time>
      </trkpt>
      <trkpt lat="43.57273" lon="6.17813">
        <ele>364.48</ele>
        <time>2017-05-16T12:09:32Z</time>
      </trkpt>
      <trkpt lat="43.57276" lon="6.17812">
        <ele>364.48</ele>
        <time>2017-05-16T12:09:35Z</time>
      </trkpt>
      <trkpt lat="43.57282" lon="6.1781">
        <ele>364.48</ele>
        <time>2017-05-16T12:09:41Z</time>
      </trkpt>
      <trkpt lat="43.57292" lon="6.17806">
        <ele>364.48</ele>
        <time>2017-05-16T12:09:52Z</time>
      </trkpt>
      <trkpt lat="43.57303" lon="6.17802">
        <ele>364.48</ele>
        <time>2017-05-16T12:10:03Z</time>
      </trkpt>
      <trkpt lat="43.57316" lon="6.17795">
        <ele>364.48</ele>
        <time>2017-05-16T12:10:16Z</time>
      </trkpt>
      <trkpt lat="43.57326" lon="6.17789">
        <ele>364.48</ele>
        <time>2017-05-16T12:10:27Z</time>
      </trkpt>
      <trkpt lat="43.57328" lon="6.17789">
        <ele>364.48</ele>
        <time>2017-05-16T12:10:30Z</time>
      </trkpt>
      <trkpt lat="43.57333" lon="6.17792">
        <ele>364.48</ele>
        <time>2017-05-16T12:10:35Z</time>
      </trkpt>
      <trkpt lat="43.57346" lon="6.17783">
        <ele>364.48</ele>
        <time>2017-05-16T12:10:47Z</time>
      </trkpt>
      <trkpt lat="43.57351" lon="6.17779">
        <ele>364.48</ele>
        <time>2017-05-16T12:10:53Z</time>
      </trkpt>
      <trkpt lat="43.57362" lon="6.17766">
        <ele>364.96</ele>
        <time>2017-05-16T12:11:06Z</time>
      </trkpt>
      <trkpt lat="43.57369" lon="6.17761">
        <ele>364</ele>
        <time>2017-05-16T12:11:14Z</time>
      </trkpt>
      <trkpt lat="43.57379" lon="6.17748">
        <ele>364.48</ele>
        <time>2017-05-16T12:11:27Z</time>
      </trkpt>
      <trkpt lat="43.57383" lon="6.17743">
        <ele>364.48</ele>
        <time>2017-05-16T12:11:32Z</time>
      </trkpt>
      <trkpt lat="43.57391" lon="6.17734">
        <ele>364.48</ele>
        <time>2017-05-16T12:11:43Z</time>
      </trkpt>
      <trkpt lat="43.57397" lon="6.17727">
        <ele>364.48</ele>
        <time>2017-05-16T12:11:50Z</time>
      </trkpt>
      <trkpt lat="43.57402" lon="6.17722">
        <ele>364.96</ele>
        <time>2017-05-16T12:11:56Z</time>
      </trkpt>
      <trkpt lat="43.57405" lon="6.17716">
        <ele>364.48</ele>
        <time>2017-05-16T12:12:01Z</time>
      </trkpt>
      <trkpt lat="43.57407" lon="6.17698">
        <ele>364</ele>
        <time>2017-05-16T12:12:14Z</time>
      </trkpt>
      <trkpt lat="43.57408" lon="6.17692">
        <ele>364</ele>
        <time>2017-05-16T12:12:18Z</time>
      </trkpt>
      <trkpt lat="43.57409" lon="6.1768">
        <ele>364</ele>
        <time>2017-05-16T12:12:26Z</time>
      </trkpt>
      <trkpt lat="43.57415" lon="6.17677">
        <ele>363.52</ele>
        <time>2017-05-16T12:12:34Z</time>
      </trkpt>
      <trkpt lat="43.57418" lon="6.17676">
        <ele>364</ele>
        <time>2017-05-16T12:12:44Z</time>
      </trkpt>
      <trkpt lat="43.57422" lon="6.17676">
        <ele>364</ele>
        <time>2017-05-16T12:12:55Z</time>
      </trkpt>
      <trkpt lat="43.57428" lon="6.17678">
        <ele>363.52</ele>
        <time>2017-05-16T12:13:02Z</time>
      </trkpt>
      <trkpt lat="43.57432" lon="6.17679">
        <ele>364</ele>
        <time>2017-05-16T12:13:06Z</time>
      </trkpt>
      <trkpt lat="43.57435" lon="6.1768">
        <ele>364</ele>
        <time>2017-05-16T12:13:10Z</time>
      </trkpt>
      <trkpt lat="43.57437" lon="6.1768">
        <ele>364</ele>
        <time>2017-05-16T12:13:12Z</time>
      </trkpt>
      <trkpt lat="43.57441" lon="6.1768">
        <ele>363.52</ele>
        <time>2017-05-16T12:13:17Z</time>
      </trkpt>
      <trkpt lat="43.57448" lon="6.17681">
        <ele>364</ele>
        <time>2017-05-16T12:13:25Z</time>
      </trkpt>
      <trkpt lat="43.57458" lon="6.1768">
        <ele>364</ele>
        <time>2017-05-16T12:13:36Z</time>
      </trkpt>
      <trkpt lat="43.57467" lon="6.17681">
        <ele>364</ele>
        <time>2017-05-16T12:13:45Z</time>
      </trkpt>
      <trkpt lat="43.5747" lon="6.17679">
        <ele>364</ele>
        <time>2017-05-16T12:13:48Z</time>
      </trkpt>
      <trkpt lat="43.5748" lon="6.17672">
        <ele>364</ele>
        <time>2017-05-16T12:13:59Z</time>
      </trkpt>
      <trkpt lat="43.57484" lon="6.17671">
        <ele>364</ele>
        <time>2017-05-16T12:14:02Z</time>
      </trkpt>
      <trkpt lat="43.57487" lon="6.17669">
        <ele>364</ele>
        <time>2017-05-16T12:14:05Z</time>
      </trkpt>
      <trkpt lat="43.57496" lon="6.17669">
        <ele>364</ele>
        <time>2017-05-16T12:14:16Z</time>
      </trkpt>
      <trkpt lat="43.57504" lon="6.17673">
        <ele>364</ele>
        <time>2017-05-16T12:14:26Z</time>
      </trkpt>
      <trkpt lat="43.57514" lon="6.17679">
        <ele>364.48</ele>
        <time>2017-05-16T12:14:36Z</time>
      </trkpt>
      <trkpt lat="43.57523" lon="6.17684">
        <ele>364.48</ele>
        <time>2017-05-16T12:14:47Z</time>
      </trkpt>
      <trkpt lat="43.57525" lon="6.17685">
        <ele>364.48</ele>
        <time>2017-05-16T12:14:50Z</time>
      </trkpt>
      <trkpt lat="43.57535" lon="6.17688">
        <ele>364.96</ele>
        <time>2017-05-16T12:15:00Z</time>
      </trkpt>
      <trkpt lat="43.57543" lon="6.17691">
        <ele>364.96</ele>
        <time>2017-05-16T12:15:08Z</time>
      </trkpt>
      <trkpt lat="43.57556" lon="6.1769">
        <ele>364.96</ele>
        <time>2017-05-16T12:15:18Z</time>
      </trkpt>
      <trkpt lat="43.57564" lon="6.17693">
        <ele>365.44</ele>
        <time>2017-05-16T12:15:28Z</time>
      </trkpt>
      <trkpt lat="43.57575" lon="6.17695">
        <ele>365.92</ele>
        <time>2017-05-16T12:15:39Z</time>
      </trkpt>
      <trkpt lat="43.57584" lon="6.17695">
        <ele>365.92</ele>
        <time>2017-05-16T12:15:48Z</time>
      </trkpt>
      <trkpt lat="43.57587" lon="6.17694">
        <ele>365.44</ele>
        <time>2017-05-16T12:15:51Z</time>
      </trkpt>
      <trkpt lat="43.57599" lon="6.17685">
        <ele>365.44</ele>
        <time>2017-05-16T12:16:03Z</time>
      </trkpt>
      <trkpt lat="43.57601" lon="6.17683">
        <ele>365.44</ele>
        <time>2017-05-16T12:16:06Z</time>
      </trkpt>
      <trkpt lat="43.57603" lon="6.17682">
        <ele>365.44</ele>
        <time>2017-05-16T12:16:08Z</time>
      </trkpt>
      <trkpt lat="43.57606" lon="6.17678">
        <ele>365.44</ele>
        <time>2017-05-16T12:16:11Z</time>
      </trkpt>
      <trkpt lat="43.57609" lon="6.17676">
        <ele>365.44</ele>
        <time>2017-05-16T12:16:14Z</time>
      </trkpt>
      <trkpt lat="43.57615" lon="6.17673">
        <ele>365.44</ele>
        <time>2017-05-16T12:16:20Z</time>
      </trkpt>
      <trkpt lat="43.57618" lon="6.17668">
        <ele>365.44</ele>
        <time>2017-05-16T12:16:26Z</time>
      </trkpt>
      <trkpt lat="43.57628" lon="6.17663">
        <ele>365.44</ele>
        <time>2017-05-16T12:16:37Z</time>
      </trkpt>
      <trkpt lat="43.57632" lon="6.17663">
        <ele>365.44</ele>
        <time>2017-05-16T12:16:41Z</time>
      </trkpt>
      <trkpt lat="43.57639" lon="6.1766">
        <ele>365.92</ele>
        <time>2017-05-16T12:16:48Z</time>
      </trkpt>
      <trkpt lat="43.57653" lon="6.17657">
        <ele>365.44</ele>
        <time>2017-05-16T12:17:02Z</time>
      </trkpt>
      <trkpt lat="43.57662" lon="6.17655">
        <ele>364.96</ele>
        <time>2017-05-16T12:17:11Z</time>
      </trkpt>
      <trkpt lat="43.57669" lon="6.17653">
        <ele>364.96</ele>
        <time>2017-05-16T12:17:18Z</time>
      </trkpt>
      <trkpt lat="43.57674" lon="6.17652">
        <ele>364.96</ele>
        <time>2017-05-16T12:17:22Z</time>
      </trkpt>
      <trkpt lat="43.57683" lon="6.17648">
        <ele>364.96</ele>
        <time>2017-05-16T12:17:32Z</time>
      </trkpt>
      <trkpt lat="43.57693" lon="6.17642">
        <ele>364.96</ele>
        <time>2017-05-16T12:17:42Z</time>
      </trkpt>
      <trkpt lat="43.57696" lon="6.17641">
        <ele>364.96</ele>
        <time>2017-05-16T12:17:45Z</time>
      </trkpt>
      <trkpt lat="43.57707" lon="6.17632">
        <ele>364.48</ele>
        <time>2017-05-16T12:17:56Z</time>
      </trkpt>
      <trkpt lat="43.57716" lon="6.17622">
        <ele>364.96</ele>
        <time>2017-05-16T12:18:07Z</time>
      </trkpt>
      <trkpt lat="43.57725" lon="6.17616">
        <ele>364.96</ele>
        <time>2017-05-16T12:18:17Z</time>
      </trkpt>
      <trkpt lat="43.57733" lon="6.1761">
        <ele>365.44</ele>
        <time>2017-05-16T12:18:27Z</time>
      </trkpt>
      <trkpt lat="43.57744" lon="6.17605">
        <ele>365.44</ele>
        <time>2017-05-16T12:18:40Z</time>
      </trkpt>
      <trkpt lat="43.57747" lon="6.17606">
        <ele>365.92</ele>
        <time>2017-05-16T12:18:44Z</time>
      </trkpt>
      <trkpt lat="43.57754" lon="6.176">
        <ele>365.92</ele>
        <time>2017-05-16T12:18:50Z</time>
      </trkpt>
      <trkpt lat="43.5776" lon="6.176">
        <ele>366.4</ele>
        <time>2017-05-16T12:18:56Z</time>
      </trkpt>
      <trkpt lat="43.57772" lon="6.17605">
        <ele>366.4</ele>
        <time>2017-05-16T12:19:08Z</time>
      </trkpt>
      <trkpt lat="43.57777" lon="6.17608">
        <ele>366.88</ele>
        <time>2017-05-16T12:19:18Z</time>
      </trkpt>
      <trkpt lat="43.57778" lon="6.17608">
        <ele>366.88</ele>
        <time>2017-05-16T12:19:26Z</time>
      </trkpt>
      <trkpt lat="43.57782" lon="6.17605">
        <ele>367.36</ele>
        <time>2017-05-16T12:19:36Z</time>
      </trkpt>
      <trkpt lat="43.57785" lon="6.17602">
        <ele>367.36</ele>
        <time>2017-05-16T12:19:50Z</time>
      </trkpt>
      <trkpt lat="43.57786" lon="6.17602">
        <ele>367.36</ele>
        <time>2017-05-16T12:20:04Z</time>
      </trkpt>
      <trkpt lat="43.57787" lon="6.17601">
        <ele>367.36</ele>
        <time>2017-05-16T12:20:24Z</time>
      </trkpt>
      <trkpt lat="43.57787" lon="6.176">
        <ele>367.84</ele>
        <time>2017-05-16T12:20:49Z</time>
      </trkpt>
      <trkpt lat="43.57788" lon="6.17599">
        <ele>367.84</ele>
        <time>2017-05-16T12:21:12Z</time>
      </trkpt>
      <trkpt lat="43.57788" lon="6.17599">
        <ele>367.36</ele>
        <time>2017-05-16T12:21:33Z</time>
      </trkpt>
      <trkpt lat="43.57788" lon="6.17598">
        <ele>367.84</ele>
        <time>2017-05-16T12:21:53Z</time>
      </trkpt>
      <trkpt lat="43.57789" lon="6.17598">
        <ele>367.84</ele>
        <time>2017-05-16T12:21:58Z</time>
      </trkpt>
      <trkpt lat="43.57795" lon="6.17597">
        <ele>367.84</ele>
        <time>2017-05-16T12:22:09Z</time>
      </trkpt>
      <trkpt lat="43.57796" lon="6.17596">
        <ele>364</ele>
        <time>2017-05-16T12:22:10Z</time>
      </trkpt>
      <trkpt lat="43.57797" lon="6.17595">
        <ele>370.73</ele>
        <time>2017-05-16T12:22:11Z</time>
      </trkpt>
      <trkpt lat="43.578" lon="6.17591">
        <ele>367.84</ele>
        <time>2017-05-16T12:22:14Z</time>
      </trkpt>
      <trkpt lat="43.57812" lon="6.17585">
        <ele>367.84</ele>
        <time>2017-05-16T12:22:24Z</time>
      </trkpt>
      <trkpt lat="43.57821" lon="6.17586">
        <ele>368.32</ele>
        <time>2017-05-16T12:22:36Z</time>
      </trkpt>
      <trkpt lat="43.57824" lon="6.1759">
        <ele>370.73</ele>
        <time>2017-05-16T12:22:49Z</time>
      </trkpt>
      <trkpt lat="43.57829" lon="6.17589">
        <ele>371.21</ele>
        <time>2017-05-16T12:22:56Z</time>
      </trkpt>
      <trkpt lat="43.57834" lon="6.17588">
        <ele>372.17</ele>
        <time>2017-05-16T12:23:05Z</time>
      </trkpt>
      <trkpt lat="43.57844" lon="6.17589">
        <ele>373.61</ele>
        <time>2017-05-16T12:23:16Z</time>
      </trkpt>
      <trkpt lat="43.57853" lon="6.17583">
        <ele>374.57</ele>
        <time>2017-05-16T12:23:26Z</time>
      </trkpt>
      <trkpt lat="43.57858" lon="6.17579">
        <ele>375.05</ele>
        <time>2017-05-16T12:23:36Z</time>
      </trkpt>
      <trkpt lat="43.57863" lon="6.17575">
        <ele>375.05</ele>
        <time>2017-05-16T12:23:44Z</time>
      </trkpt>
      <trkpt lat="43.57869" lon="6.17574">
        <ele>374.57</ele>
        <time>2017-05-16T12:23:55Z</time>
      </trkpt>
      <trkpt lat="43.57874" lon="6.1757">
        <ele>374.09</ele>
        <time>2017-05-16T12:24:04Z</time>
      </trkpt>
      <trkpt lat="43.57878" lon="6.17569">
        <ele>374.09</ele>
        <time>2017-05-16T12:24:15Z</time>
      </trkpt>
      <trkpt lat="43.57884" lon="6.17569">
        <ele>374.09</ele>
        <time>2017-05-16T12:24:25Z</time>
      </trkpt>
      <trkpt lat="43.57886" lon="6.1757">
        <ele>374.09</ele>
        <time>2017-05-16T12:24:27Z</time>
      </trkpt>
      <trkpt lat="43.57891" lon="6.1757">
        <ele>373.61</ele>
        <time>2017-05-16T12:24:39Z</time>
      </trkpt>
      <trkpt lat="43.57895" lon="6.1757">
        <ele>373.61</ele>
        <time>2017-05-16T12:24:49Z</time>
      </trkpt>
      <trkpt lat="43.57897" lon="6.17572">
        <ele>374.09</ele>
        <time>2017-05-16T12:24:51Z</time>
      </trkpt>
      <trkpt lat="43.57902" lon="6.17577">
        <ele>375.05</ele>
        <time>2017-05-16T12:25:00Z</time>
      </trkpt>
      <trkpt lat="43.57906" lon="6.17578">
        <ele>374.57</ele>
        <time>2017-05-16T12:25:09Z</time>
      </trkpt>
      <trkpt lat="43.5791" lon="6.17575">
        <ele>374.57</ele>
        <time>2017-05-16T12:25:18Z</time>
      </trkpt>
      <trkpt lat="43.57911" lon="6.17573">
        <ele>374.57</ele>
        <time>2017-05-16T12:25:33Z</time>
      </trkpt>
      <trkpt lat="43.57912" lon="6.17572">
        <ele>374.57</ele>
        <time>2017-05-16T12:25:42Z</time>
      </trkpt>
      <trkpt lat="43.57915" lon="6.17573">
        <ele>375.53</ele>
        <time>2017-05-16T12:25:51Z</time>
      </trkpt>
      <trkpt lat="43.57917" lon="6.17574">
        <ele>376.97</ele>
        <time>2017-05-16T12:26:01Z</time>
      </trkpt>
      <trkpt lat="43.57921" lon="6.17574">
        <ele>377.45</ele>
        <time>2017-05-16T12:26:10Z</time>
      </trkpt>
      <trkpt lat="43.57923" lon="6.17575">
        <ele>378.42</ele>
        <time>2017-05-16T12:26:27Z</time>
      </trkpt>
      <trkpt lat="43.57927" lon="6.1758">
        <ele>379.86</ele>
        <time>2017-05-16T12:26:39Z</time>
      </trkpt>
      <trkpt lat="43.57931" lon="6.17582">
        <ele>380.34</ele>
        <time>2017-05-16T12:26:48Z</time>
      </trkpt>
      <trkpt lat="43.57935" lon="6.17582">
        <ele>379.38</ele>
        <time>2017-05-16T12:26:59Z</time>
      </trkpt>
      <trkpt lat="43.57936" lon="6.1758">
        <ele>378.9</ele>
        <time>2017-05-16T12:27:11Z</time>
      </trkpt>
      <trkpt lat="43.57937" lon="6.17579">
        <ele>377.94</ele>
        <time>2017-05-16T12:27:26Z</time>
      </trkpt>
      <trkpt lat="43.5794" lon="6.1758">
        <ele>376.97</ele>
        <time>2017-05-16T12:27:38Z</time>
      </trkpt>
      <trkpt lat="43.57943" lon="6.17581">
        <ele>376.01</ele>
        <time>2017-05-16T12:27:46Z</time>
      </trkpt>
      <trkpt lat="43.57946" lon="6.17583">
        <ele>375.53</ele>
        <time>2017-05-16T12:27:56Z</time>
      </trkpt>
      <trkpt lat="43.57948" lon="6.17583">
        <ele>375.05</ele>
        <time>2017-05-16T12:28:10Z</time>
      </trkpt>
      <trkpt lat="43.57949" lon="6.17582">
        <ele>374.57</ele>
        <time>2017-05-16T12:28:29Z</time>
      </trkpt>
      <trkpt lat="43.57953" lon="6.17584">
        <ele>373.61</ele>
        <time>2017-05-16T12:28:38Z</time>
      </trkpt>
      <trkpt lat="43.57955" lon="6.17585">
        <ele>372.65</ele>
        <time>2017-05-16T12:28:50Z</time>
      </trkpt>
      <trkpt lat="43.57956" lon="6.17584">
        <ele>372.65</ele>
        <time>2017-05-16T12:29:03Z</time>
      </trkpt>
      <trkpt lat="43.57958" lon="6.17587">
        <ele>370.73</ele>
        <time>2017-05-16T12:29:17Z</time>
      </trkpt>
      <trkpt lat="43.57963" lon="6.17594">
        <ele>369.76</ele>
        <time>2017-05-16T12:29:27Z</time>
      </trkpt>
      <trkpt lat="43.57966" lon="6.17592">
        <ele>369.76</ele>
        <time>2017-05-16T12:29:39Z</time>
      </trkpt>
      <trkpt lat="43.57965" lon="6.17592">
        <ele>370.73</ele>
        <time>2017-05-16T12:29:58Z</time>
      </trkpt>
      <trkpt lat="43.57965" lon="6.17589">
        <ele>369.76</ele>
        <time>2017-05-16T12:30:17Z</time>
      </trkpt>
      <trkpt lat="43.57965" lon="6.17589">
        <ele>369.76</ele>
        <time>2017-05-16T12:30:36Z</time>
      </trkpt>
      <trkpt lat="43.57965" lon="6.17589">
        <ele>369.28</ele>
        <time>2017-05-16T12:30:59Z</time>
      </trkpt>
      <trkpt lat="43.57967" lon="6.17587">
        <ele>368.8</ele>
        <time>2017-05-16T12:31:11Z</time>
      </trkpt>
      <trkpt lat="43.5797" lon="6.17579">
        <ele>368.32</ele>
        <time>2017-05-16T12:31:20Z</time>
      </trkpt>
      <trkpt lat="43.57973" lon="6.17568">
        <ele>368.32</ele>
        <time>2017-05-16T12:31:29Z</time>
      </trkpt>
      <trkpt lat="43.57977" lon="6.17567">
        <ele>368.32</ele>
        <time>2017-05-16T12:31:40Z</time>
      </trkpt>
      <trkpt lat="43.5798" lon="6.17562">
        <ele>368.8</ele>
        <time>2017-05-16T12:31:50Z</time>
      </trkpt>
      <trkpt lat="43.57982" lon="6.17559">
        <ele>368.8</ele>
        <time>2017-05-16T12:32:00Z</time>
      </trkpt>
      <trkpt lat="43.57986" lon="6.17557">
        <ele>369.28</ele>
        <time>2017-05-16T12:32:10Z</time>
      </trkpt>
      <trkpt lat="43.57989" lon="6.17552">
        <ele>370.73</ele>
        <time>2017-05-16T12:32:22Z</time>
      </trkpt>
      <trkpt lat="43.57995" lon="6.17547">
        <ele>371.21</ele>
        <time>2017-05-16T12:32:33Z</time>
      </trkpt>
      <trkpt lat="43.58001" lon="6.17541">
        <ele>371.69</ele>
        <time>2017-05-16T12:32:43Z</time>
      </trkpt>
      <trkpt lat="43.58006" lon="6.17536">
        <ele>371.21</ele>
        <time>2017-05-16T12:32:53Z</time>
      </trkpt>
      <trkpt lat="43.58009" lon="6.17532">
        <ele>370.73</ele>
        <time>2017-05-16T12:33:03Z</time>
      </trkpt>
      <trkpt lat="43.58012" lon="6.17529">
        <ele>370.24</ele>
        <time>2017-05-16T12:33:14Z</time>
      </trkpt>
      <trkpt lat="43.58013" lon="6.17527">
        <ele>368.8</ele>
        <time>2017-05-16T12:33:28Z</time>
      </trkpt>
      <trkpt lat="43.58018" lon="6.17525">
        <ele>368.8</ele>
        <time>2017-05-16T12:33:40Z</time>
      </trkpt>
      <trkpt lat="43.58026" lon="6.17522">
        <ele>369.28</ele>
        <time>2017-05-16T12:33:51Z</time>
      </trkpt>
      <trkpt lat="43.58033" lon="6.17518">
        <ele>369.28</ele>
        <time>2017-05-16T12:34:02Z</time>
      </trkpt>
      <trkpt lat="43.58035" lon="6.17514">
        <ele>369.28</ele>
        <time>2017-05-16T12:34:12Z</time>
      </trkpt>
      <trkpt lat="43.58034" lon="6.17513">
        <ele>369.28</ele>
        <time>2017-05-16T12:34:35Z</time>
      </trkpt>
      <trkpt lat="43.58034" lon="6.17511">
        <ele>369.28</ele>
        <time>2017-05-16T12:34:57Z</time>
      </trkpt>
      <trkpt lat="43.58039" lon="6.17508">
        <ele>369.28</ele>
        <time>2017-05-16T12:35:15Z</time>
      </trkpt>
      <trkpt lat="43.58048" lon="6.17499">
        <ele>369.28</ele>
        <time>2017-05-16T12:35:27Z</time>
      </trkpt>
      <trkpt lat="43.58055" lon="6.1749">
        <ele>369.76</ele>
        <time>2017-05-16T12:35:39Z</time>
      </trkpt>
      <trkpt lat="43.58061" lon="6.17481">
        <ele>369.28</ele>
        <time>2017-05-16T12:35:52Z</time>
      </trkpt>
      <trkpt lat="43.58067" lon="6.17471">
        <ele>369.28</ele>
        <time>2017-05-16T12:36:03Z</time>
      </trkpt>
      <trkpt lat="43.58069" lon="6.17461">
        <ele>369.28</ele>
        <time>2017-05-16T12:36:12Z</time>
      </trkpt>
      <trkpt lat="43.58073" lon="6.17456">
        <ele>369.76</ele>
        <time>2017-05-16T12:36:22Z</time>
      </trkpt>
      <trkpt lat="43.5808" lon="6.17451">
        <ele>369.76</ele>
        <time>2017-05-16T12:36:32Z</time>
      </trkpt>
      <trkpt lat="43.58085" lon="6.17442">
        <ele>369.76</ele>
        <time>2017-05-16T12:36:43Z</time>
      </trkpt>
      <trkpt lat="43.58088" lon="6.17433">
        <ele>370.24</ele>
        <time>2017-05-16T12:36:54Z</time>
      </trkpt>
      <trkpt lat="43.58092" lon="6.17417">
        <ele>370.24</ele>
        <time>2017-05-16T12:37:06Z</time>
      </trkpt>
      <trkpt lat="43.58098" lon="6.17409">
        <ele>370.24</ele>
        <time>2017-05-16T12:37:18Z</time>
      </trkpt>
      <trkpt lat="43.581" lon="6.17404">
        <ele>370.24</ele>
        <time>2017-05-16T12:37:29Z</time>
      </trkpt>
      <trkpt lat="43.58105" lon="6.17396">
        <ele>370.24</ele>
        <time>2017-05-16T12:37:39Z</time>
      </trkpt>
      <trkpt lat="43.58108" lon="6.17388">
        <ele>370.24</ele>
        <time>2017-05-16T12:37:49Z</time>
      </trkpt>
      <trkpt lat="43.58113" lon="6.17376">
        <ele>370.73</ele>
        <time>2017-05-16T12:38:01Z</time>
      </trkpt>
      <trkpt lat="43.58119" lon="6.17365">
        <ele>370.24</ele>
        <time>2017-05-16T12:38:11Z</time>
      </trkpt>
      <trkpt lat="43.58121" lon="6.17353">
        <ele>370.24</ele>
        <time>2017-05-16T12:38:25Z</time>
      </trkpt>
      <trkpt lat="43.58125" lon="6.17343">
        <ele>370.24</ele>
        <time>2017-05-16T12:38:34Z</time>
      </trkpt>
      <trkpt lat="43.58126" lon="6.17335">
        <ele>370.73</ele>
        <time>2017-05-16T12:38:44Z</time>
      </trkpt>
      <trkpt lat="43.5813" lon="6.17327">
        <ele>370.73</ele>
        <time>2017-05-16T12:38:55Z</time>
      </trkpt>
      <trkpt lat="43.58138" lon="6.17316">
        <ele>370.24</ele>
        <time>2017-05-16T12:39:07Z</time>
      </trkpt>
      <trkpt lat="43.58142" lon="6.17308">
        <ele>370.73</ele>
        <time>2017-05-16T12:39:19Z</time>
      </trkpt>
      <trkpt lat="43.58144" lon="6.17303">
        <ele>370.24</ele>
        <time>2017-05-16T12:39:24Z</time>
      </trkpt>
      <trkpt lat="43.58149" lon="6.17293">
        <ele>370.73</ele>
        <time>2017-05-16T12:39:35Z</time>
      </trkpt>
      <trkpt lat="43.58154" lon="6.17287">
        <ele>370.24</ele>
        <time>2017-05-16T12:39:47Z</time>
      </trkpt>
      <trkpt lat="43.58161" lon="6.17282">
        <ele>370.73</ele>
        <time>2017-05-16T12:39:57Z</time>
      </trkpt>
      <trkpt lat="43.58163" lon="6.17281">
        <ele>370.73</ele>
        <time>2017-05-16T12:40:00Z</time>
      </trkpt>
      <trkpt lat="43.5817" lon="6.17275">
        <ele>370.24</ele>
        <time>2017-05-16T12:40:10Z</time>
      </trkpt>
      <trkpt lat="43.58177" lon="6.17268">
        <ele>370.73</ele>
        <time>2017-05-16T12:40:23Z</time>
      </trkpt>
      <trkpt lat="43.58185" lon="6.1727">
        <ele>370.24</ele>
        <time>2017-05-16T12:40:35Z</time>
      </trkpt>
      <trkpt lat="43.58193" lon="6.17268">
        <ele>370.73</ele>
        <time>2017-05-16T12:40:45Z</time>
      </trkpt>
      <trkpt lat="43.582" lon="6.17268">
        <ele>370.24</ele>
        <time>2017-05-16T12:40:57Z</time>
      </trkpt>
      <trkpt lat="43.58208" lon="6.17268">
        <ele>370.24</ele>
        <time>2017-05-16T12:41:07Z</time>
      </trkpt>
      <trkpt lat="43.58215" lon="6.17267">
        <ele>370.24</ele>
        <time>2017-05-16T12:41:17Z</time>
      </trkpt>
      <trkpt lat="43.58222" lon="6.17264">
        <ele>370.73</ele>
        <time>2017-05-16T12:41:27Z</time>
      </trkpt>
      <trkpt lat="43.58226" lon="6.17251">
        <ele>370.24</ele>
        <time>2017-05-16T12:41:34Z</time>
      </trkpt>
      <trkpt lat="43.58227" lon="6.17249">
        <ele>370.24</ele>
        <time>2017-05-16T12:41:44Z</time>
      </trkpt>
      <trkpt lat="43.58227" lon="6.17251">
        <ele>370.24</ele>
        <time>2017-05-16T12:41:56Z</time>
      </trkpt>
      <trkpt lat="43.58227" lon="6.17253">
        <ele>370.24</ele>
        <time>2017-05-16T12:42:17Z</time>
      </trkpt>
      <trkpt lat="43.58227" lon="6.17252">
        <ele>369.76</ele>
        <time>2017-05-16T12:42:31Z</time>
      </trkpt>
      <trkpt lat="43.58226" lon="6.17252">
        <ele>370.24</ele>
        <time>2017-05-16T12:42:49Z</time>
      </trkpt>
      <trkpt lat="43.58226" lon="6.17252">
        <ele>370.24</ele>
        <time>2017-05-16T12:43:08Z</time>
      </trkpt>
      <trkpt lat="43.58227" lon="6.17255">
        <ele>370.24</ele>
        <time>2017-05-16T12:43:18Z</time>
      </trkpt>
      <trkpt lat="43.58225" lon="6.17259">
        <ele>370.73</ele>
        <time>2017-05-16T12:43:30Z</time>
      </trkpt>
      <trkpt lat="43.58226" lon="6.17259">
        <ele>370.73</ele>
        <time>2017-05-16T12:43:50Z</time>
      </trkpt>
      <trkpt lat="43.58226" lon="6.17257">
        <ele>370.73</ele>
        <time>2017-05-16T12:44:07Z</time>
      </trkpt>
      <trkpt lat="43.58226" lon="6.17256">
        <ele>371.21</ele>
        <time>2017-05-16T12:44:25Z</time>
      </trkpt>
      <trkpt lat="43.58228" lon="6.17255">
        <ele>371.21</ele>
        <time>2017-05-16T12:44:48Z</time>
      </trkpt>
      <trkpt lat="43.5823" lon="6.17256">
        <ele>371.21</ele>
        <time>2017-05-16T12:45:11Z</time>
      </trkpt>
      <trkpt lat="43.5823" lon="6.17257">
        <ele>371.69</ele>
        <time>2017-05-16T12:45:34Z</time>
      </trkpt>
      <trkpt lat="43.58231" lon="6.17256">
        <ele>371.69</ele>
        <time>2017-05-16T12:45:57Z</time>
      </trkpt>
      <trkpt lat="43.58229" lon="6.17254">
        <ele>371.69</ele>
        <time>2017-05-16T12:46:16Z</time>
      </trkpt>
      <trkpt lat="43.58229" lon="6.17254">
        <ele>371.69</ele>
        <time>2017-05-16T12:46:40Z</time>
      </trkpt>
      <trkpt lat="43.5823" lon="6.17255">
        <ele>371.69</ele>
        <time>2017-05-16T12:47:00Z</time>
      </trkpt>
      <trkpt lat="43.5823" lon="6.17255">
        <ele>372.17</ele>
        <time>2017-05-16T12:47:20Z</time>
      </trkpt>
      <trkpt lat="43.58229" lon="6.17254">
        <ele>372.17</ele>
        <time>2017-05-16T12:47:38Z</time>
      </trkpt>
      <trkpt lat="43.58229" lon="6.17254">
        <ele>373.13</ele>
        <time>2017-05-16T12:48:00Z</time>
      </trkpt>
      <trkpt lat="43.5823" lon="6.17253">
        <ele>372.17</ele>
        <time>2017-05-16T12:48:24Z</time>
      </trkpt>
      <trkpt lat="43.5823" lon="6.17253">
        <ele>372.17</ele>
        <time>2017-05-16T12:48:42Z</time>
      </trkpt>
      <trkpt lat="43.5823" lon="6.17253">
        <ele>372.65</ele>
        <time>2017-05-16T12:49:02Z</time>
      </trkpt>
      <trkpt lat="43.5823" lon="6.17253">
        <ele>372.65</ele>
        <time>2017-05-16T12:49:28Z</time>
      </trkpt>
      <trkpt lat="43.5823" lon="6.17253">
        <ele>372.65</ele>
        <time>2017-05-16T12:49:44Z</time>
      </trkpt>
      <trkpt lat="43.5823" lon="6.17251">
        <ele>373.13</ele>
        <time>2017-05-16T12:50:08Z</time>
      </trkpt>
      <trkpt lat="43.5823" lon="6.1725">
        <ele>369.76</ele>
        <time>2017-05-16T12:50:28Z</time>
      </trkpt>
      <trkpt lat="43.5823" lon="6.1725">
        <ele>374.09</ele>
        <time>2017-05-16T12:50:29Z</time>
      </trkpt>
      <trkpt lat="43.5823" lon="6.1725">
        <ele>374.57</ele>
        <time>2017-05-16T12:50:30Z</time>
      </trkpt>
      <trkpt lat="43.5823" lon="6.1725">
        <ele>373.13</ele>
        <time>2017-05-16T12:50:44Z</time>
      </trkpt>
      <trkpt lat="43.5823" lon="6.1725">
        <ele>373.61</ele>
        <time>2017-05-16T12:51:03Z</time>
      </trkpt>
      <trkpt lat="43.58229" lon="6.1725">
        <ele>373.61</ele>
        <time>2017-05-16T12:51:27Z</time>
      </trkpt>
      <trkpt lat="43.58229" lon="6.1725">
        <ele>373.61</ele>
        <time>2017-05-16T12:51:44Z</time>
      </trkpt>
      <trkpt lat="43.58229" lon="6.1725">
        <ele>373.61</ele>
        <time>2017-05-16T12:52:06Z</time>
      </trkpt>
      <trkpt lat="43.58229" lon="6.1725">
        <ele>374.09</ele>
        <time>2017-05-16T12:52:25Z</time>
      </trkpt>
      <trkpt lat="43.58229" lon="6.17251">
        <ele>374.09</ele>
        <time>2017-05-16T12:52:40Z</time>
      </trkpt>
      <trkpt lat="43.58231" lon="6.17256">
        <ele>375.05</ele>
        <time>2017-05-16T12:52:49Z</time>
      </trkpt>
      <trkpt lat="43.58238" lon="6.17261">
        <ele>375.53</ele>
        <time>2017-05-16T12:53:00Z</time>
      </trkpt>
      <trkpt lat="43.58243" lon="6.17265">
        <ele>376.01</ele>
        <time>2017-05-16T12:53:10Z</time>
      </trkpt>
      <trkpt lat="43.5825" lon="6.17268">
        <ele>376.49</ele>
        <time>2017-05-16T12:53:21Z</time>
      </trkpt>
      <trkpt lat="43.58261" lon="6.17267">
        <ele>376.97</ele>
        <time>2017-05-16T12:53:32Z</time>
      </trkpt>
      <trkpt lat="43.58266" lon="6.17266">
        <ele>376.97</ele>
        <time>2017-05-16T12:53:42Z</time>
      </trkpt>
      <trkpt lat="43.58272" lon="6.17259">
        <ele>376.49</ele>
        <time>2017-05-16T12:53:54Z</time>
      </trkpt>
      <trkpt lat="43.58278" lon="6.17258">
        <ele>376.97</ele>
        <time>2017-05-16T12:54:03Z</time>
      </trkpt>
      <trkpt lat="43.58286" lon="6.17258">
        <ele>376.97</ele>
        <time>2017-05-16T12:54:15Z</time>
      </trkpt>
      <trkpt lat="43.58296" lon="6.17256">
        <ele>376.97</ele>
        <time>2017-05-16T12:54:27Z</time>
      </trkpt>
      <trkpt lat="43.58307" lon="6.17248">
        <ele>376.49</ele>
        <time>2017-05-16T12:54:39Z</time>
      </trkpt>
      <trkpt lat="43.58309" lon="6.17247">
        <ele>376.49</ele>
        <time>2017-05-16T12:54:50Z</time>
      </trkpt>
      <trkpt lat="43.58317" lon="6.17233">
        <ele>376.97</ele>
        <time>2017-05-16T12:55:00Z</time>
      </trkpt>
      <trkpt lat="43.58328" lon="6.17219">
        <ele>376.97</ele>
        <time>2017-05-16T12:55:13Z</time>
      </trkpt>
      <trkpt lat="43.58336" lon="6.17212">
        <ele>377.45</ele>
        <time>2017-05-16T12:55:24Z</time>
      </trkpt>
      <trkpt lat="43.58342" lon="6.17202">
        <ele>377.94</ele>
        <time>2017-05-16T12:55:35Z</time>
      </trkpt>
      <trkpt lat="43.58346" lon="6.17191">
        <ele>377.94</ele>
        <time>2017-05-16T12:55:46Z</time>
      </trkpt>
      <trkpt lat="43.58351" lon="6.17179">
        <ele>377.94</ele>
        <time>2017-05-16T12:55:56Z</time>
      </trkpt>
      <trkpt lat="43.58353" lon="6.17172">
        <ele>377.94</ele>
        <time>2017-05-16T12:56:04Z</time>
      </trkpt>
      <trkpt lat="43.58359" lon="6.17162">
        <ele>378.42</ele>
        <time>2017-05-16T12:56:17Z</time>
      </trkpt>
      <trkpt lat="43.58361" lon="6.17151">
        <ele>378.9</ele>
        <time>2017-05-16T12:56:30Z</time>
      </trkpt>
      <trkpt lat="43.58364" lon="6.17139">
        <ele>378.9</ele>
        <time>2017-05-16T12:56:42Z</time>
      </trkpt>
      <trkpt lat="43.58368" lon="6.17132">
        <ele>378.9</ele>
        <time>2017-05-16T12:56:52Z</time>
      </trkpt>
      <trkpt lat="43.58369" lon="6.17121">
        <ele>378.42</ele>
        <time>2017-05-16T12:57:01Z</time>
      </trkpt>
      <trkpt lat="43.58368" lon="6.17115">
        <ele>378.42</ele>
        <time>2017-05-16T12:57:11Z</time>
      </trkpt>
      <trkpt lat="43.58371" lon="6.17108">
        <ele>377.94</ele>
        <time>2017-05-16T12:57:22Z</time>
      </trkpt>
      <trkpt lat="43.58376" lon="6.17096">
        <ele>378.42</ele>
        <time>2017-05-16T12:57:35Z</time>
      </trkpt>
      <trkpt lat="43.58381" lon="6.17087">
        <ele>378.9</ele>
        <time>2017-05-16T12:57:44Z</time>
      </trkpt>
      <trkpt lat="43.58384" lon="6.17069">
        <ele>378.9</ele>
        <time>2017-05-16T12:57:57Z</time>
      </trkpt>
      <trkpt lat="43.58385" lon="6.17061">
        <ele>378.42</ele>
        <time>2017-05-16T12:58:06Z</time>
      </trkpt>
      <trkpt lat="43.58388" lon="6.17049">
        <ele>377.94</ele>
        <time>2017-05-16T12:58:19Z</time>
      </trkpt>
      <trkpt lat="43.58392" lon="6.17043">
        <ele>377.45</ele>
        <time>2017-05-16T12:58:28Z</time>
      </trkpt>
      <trkpt lat="43.58395" lon="6.17034">
        <ele>377.45</ele>
        <time>2017-05-16T12:58:38Z</time>
      </trkpt>
      <trkpt lat="43.58399" lon="6.17022">
        <ele>377.45</ele>
        <time>2017-05-16T12:58:49Z</time>
      </trkpt>
      <trkpt lat="43.584" lon="6.17014">
        <ele>377.45</ele>
        <time>2017-05-16T12:58:59Z</time>
      </trkpt>
      <trkpt lat="43.584" lon="6.17009">
        <ele>377.45</ele>
        <time>2017-05-16T12:59:09Z</time>
      </trkpt>
      <trkpt lat="43.58404" lon="6.16997">
        <ele>377.45</ele>
        <time>2017-05-16T12:59:21Z</time>
      </trkpt>
      <trkpt lat="43.58408" lon="6.16986">
        <ele>376.97</ele>
        <time>2017-05-16T12:59:34Z</time>
      </trkpt>
      <trkpt lat="43.58414" lon="6.16971">
        <ele>376.97</ele>
        <time>2017-05-16T12:59:47Z</time>
      </trkpt>
      <trkpt lat="43.58417" lon="6.16967">
        <ele>376.97</ele>
        <time>2017-05-16T12:59:56Z</time>
      </trkpt>
      <trkpt lat="43.5842" lon="6.1696">
        <ele>376.97</ele>
        <time>2017-05-16T13:00:05Z</time>
      </trkpt>
      <trkpt lat="43.58422" lon="6.16949">
        <ele>376.97</ele>
        <time>2017-05-16T13:00:15Z</time>
      </trkpt>
      <trkpt lat="43.58425" lon="6.16942">
        <ele>377.45</ele>
        <time>2017-05-16T13:00:26Z</time>
      </trkpt>
      <trkpt lat="43.58427" lon="6.16936">
        <ele>376.97</ele>
        <time>2017-05-16T13:00:36Z</time>
      </trkpt>
      <trkpt lat="43.58432" lon="6.16926">
        <ele>376.97</ele>
        <time>2017-05-16T13:00:46Z</time>
      </trkpt>
      <trkpt lat="43.58434" lon="6.1692">
        <ele>376.49</ele>
        <time>2017-05-16T13:01:00Z</time>
      </trkpt>
      <trkpt lat="43.58436" lon="6.16915">
        <ele>376.97</ele>
        <time>2017-05-16T13:01:07Z</time>
      </trkpt>
      <trkpt lat="43.58442" lon="6.16902">
        <ele>376.97</ele>
        <time>2017-05-16T13:01:16Z</time>
      </trkpt>
      <trkpt lat="43.58446" lon="6.1689">
        <ele>376.97</ele>
        <time>2017-05-16T13:01:29Z</time>
      </trkpt>
      <trkpt lat="43.58451" lon="6.16875">
        <ele>376.97</ele>
        <time>2017-05-16T13:01:40Z</time>
      </trkpt>
      <trkpt lat="43.58454" lon="6.16864">
        <ele>377.45</ele>
        <time>2017-05-16T13:01:53Z</time>
      </trkpt>
      <trkpt lat="43.58458" lon="6.16852">
        <ele>378.42</ele>
        <time>2017-05-16T13:02:01Z</time>
      </trkpt>
      <trkpt lat="43.5846" lon="6.16845">
        <ele>377.45</ele>
        <time>2017-05-16T13:02:15Z</time>
      </trkpt>
      <trkpt lat="43.58463" lon="6.16838">
        <ele>377.45</ele>
        <time>2017-05-16T13:02:28Z</time>
      </trkpt>
      <trkpt lat="43.58465" lon="6.16831">
        <ele>376.97</ele>
        <time>2017-05-16T13:02:42Z</time>
      </trkpt>
      <trkpt lat="43.58466" lon="6.16823">
        <ele>376.97</ele>
        <time>2017-05-16T13:02:54Z</time>
      </trkpt>
      <trkpt lat="43.58467" lon="6.16818">
        <ele>376.97</ele>
        <time>2017-05-16T13:03:08Z</time>
      </trkpt>
      <trkpt lat="43.58473" lon="6.16808">
        <ele>376.49</ele>
        <time>2017-05-16T13:03:22Z</time>
      </trkpt>
      <trkpt lat="43.58474" lon="6.168">
        <ele>376.49</ele>
        <time>2017-05-16T13:03:37Z</time>
      </trkpt>
      <trkpt lat="43.58474" lon="6.16796">
        <ele>376.49</ele>
        <time>2017-05-16T13:03:52Z</time>
      </trkpt>
      <trkpt lat="43.58478" lon="6.16791">
        <ele>376.01</ele>
        <time>2017-05-16T13:04:12Z</time>
      </trkpt>
      <trkpt lat="43.58488" lon="6.16777">
        <ele>376.01</ele>
        <time>2017-05-16T13:04:23Z</time>
      </trkpt>
      <trkpt lat="43.5849" lon="6.16765">
        <ele>376.49</ele>
        <time>2017-05-16T13:04:34Z</time>
      </trkpt>
      <trkpt lat="43.58494" lon="6.16756">
        <ele>376.97</ele>
        <time>2017-05-16T13:04:46Z</time>
      </trkpt>
      <trkpt lat="43.58495" lon="6.16751">
        <ele>376.49</ele>
        <time>2017-05-16T13:04:57Z</time>
      </trkpt>
      <trkpt lat="43.58494" lon="6.16739">
        <ele>376.97</ele>
        <time>2017-05-16T13:05:08Z</time>
      </trkpt>
      <trkpt lat="43.58497" lon="6.1673">
        <ele>376.97</ele>
        <time>2017-05-16T13:05:22Z</time>
      </trkpt>
      <trkpt lat="43.58499" lon="6.16719">
        <ele>376.97</ele>
        <time>2017-05-16T13:05:31Z</time>
      </trkpt>
      <trkpt lat="43.58501" lon="6.16704">
        <ele>376.97</ele>
        <time>2017-05-16T13:05:42Z</time>
      </trkpt>
      <trkpt lat="43.58502" lon="6.16694">
        <ele>377.45</ele>
        <time>2017-05-16T13:05:55Z</time>
      </trkpt>
      <trkpt lat="43.58505" lon="6.16681">
        <ele>377.45</ele>
        <time>2017-05-16T13:06:06Z</time>
      </trkpt>
      <trkpt lat="43.58505" lon="6.16676">
        <ele>377.94</ele>
        <time>2017-05-16T13:06:18Z</time>
      </trkpt>
      <trkpt lat="43.58506" lon="6.16666">
        <ele>377.94</ele>
        <time>2017-05-16T13:06:29Z</time>
      </trkpt>
      <trkpt lat="43.58507" lon="6.16653">
        <ele>377.94</ele>
        <time>2017-05-16T13:06:42Z</time>
      </trkpt>
      <trkpt lat="43.58512" lon="6.16634">
        <ele>377.94</ele>
        <time>2017-05-16T13:06:56Z</time>
      </trkpt>
      <trkpt lat="43.58516" lon="6.16626">
        <ele>377.94</ele>
        <time>2017-05-16T13:07:08Z</time>
      </trkpt>
      <trkpt lat="43.5852" lon="6.1662">
        <ele>377.94</ele>
        <time>2017-05-16T13:07:19Z</time>
      </trkpt>
      <trkpt lat="43.58524" lon="6.16614">
        <ele>377.94</ele>
        <time>2017-05-16T13:07:31Z</time>
      </trkpt>
      <trkpt lat="43.58532" lon="6.166">
        <ele>377.45</ele>
        <time>2017-05-16T13:07:44Z</time>
      </trkpt>
      <trkpt lat="43.58539" lon="6.16592">
        <ele>377.94</ele>
        <time>2017-05-16T13:07:53Z</time>
      </trkpt>
      <trkpt lat="43.58543" lon="6.16586">
        <ele>377.94</ele>
        <time>2017-05-16T13:08:05Z</time>
      </trkpt>
      <trkpt lat="43.58546" lon="6.16579">
        <ele>377.94</ele>
        <time>2017-05-16T13:08:17Z</time>
      </trkpt>
      <trkpt lat="43.58551" lon="6.16572">
        <ele>377.94</ele>
        <time>2017-05-16T13:08:29Z</time>
      </trkpt>
      <trkpt lat="43.58558" lon="6.1656">
        <ele>377.94</ele>
        <time>2017-05-16T13:08:39Z</time>
      </trkpt>
      <trkpt lat="43.5856" lon="6.16556">
        <ele>377.94</ele>
        <time>2017-05-16T13:08:53Z</time>
      </trkpt>
      <trkpt lat="43.58564" lon="6.16551">
        <ele>377.94</ele>
        <time>2017-05-16T13:09:04Z</time>
      </trkpt>
      <trkpt lat="43.58571" lon="6.16545">
        <ele>378.42</ele>
        <time>2017-05-16T13:09:15Z</time>
      </trkpt>
      <trkpt lat="43.58578" lon="6.16538">
        <ele>378.42</ele>
        <time>2017-05-16T13:09:25Z</time>
      </trkpt>
      <trkpt lat="43.58583" lon="6.16531">
        <ele>378.42</ele>
        <time>2017-05-16T13:09:36Z</time>
      </trkpt>
      <trkpt lat="43.58591" lon="6.16523">
        <ele>378.42</ele>
        <time>2017-05-16T13:09:47Z</time>
      </trkpt>
      <trkpt lat="43.58602" lon="6.16514">
        <ele>378.9</ele>
        <time>2017-05-16T13:09:57Z</time>
      </trkpt>
      <trkpt lat="43.58606" lon="6.1651">
        <ele>379.38</ele>
        <time>2017-05-16T13:10:09Z</time>
      </trkpt>
      <trkpt lat="43.58611" lon="6.16513">
        <ele>380.34</ele>
        <time>2017-05-16T13:10:19Z</time>
      </trkpt>
      <trkpt lat="43.58614" lon="6.1651">
        <ele>380.82</ele>
        <time>2017-05-16T13:10:30Z</time>
      </trkpt>
      <trkpt lat="43.58617" lon="6.16507">
        <ele>379.38</ele>
        <time>2017-05-16T13:10:42Z</time>
      </trkpt>
      <trkpt lat="43.5862" lon="6.165">
        <ele>378.42</ele>
        <time>2017-05-16T13:10:52Z</time>
      </trkpt>
      <trkpt lat="43.58623" lon="6.16499">
        <ele>379.38</ele>
        <time>2017-05-16T13:11:06Z</time>
      </trkpt>
      <trkpt lat="43.5863" lon="6.1649">
        <ele>379.38</ele>
        <time>2017-05-16T13:11:15Z</time>
      </trkpt>
      <trkpt lat="43.58632" lon="6.16485">
        <ele>378.9</ele>
        <time>2017-05-16T13:11:28Z</time>
      </trkpt>
      <trkpt lat="43.58633" lon="6.16482">
        <ele>378.42</ele>
        <time>2017-05-16T13:11:41Z</time>
      </trkpt>
      <trkpt lat="43.58634" lon="6.16481">
        <ele>377.94</ele>
        <time>2017-05-16T13:11:52Z</time>
      </trkpt>
      <trkpt lat="43.58635" lon="6.16477">
        <ele>377.94</ele>
        <time>2017-05-16T13:12:03Z</time>
      </trkpt>
      <trkpt lat="43.58636" lon="6.16472">
        <ele>377.94</ele>
        <time>2017-05-16T13:12:16Z</time>
      </trkpt>
      <trkpt lat="43.58639" lon="6.16469">
        <ele>377.94</ele>
        <time>2017-05-16T13:12:29Z</time>
      </trkpt>
      <trkpt lat="43.58639" lon="6.16467">
        <ele>378.42</ele>
        <time>2017-05-16T13:12:44Z</time>
      </trkpt>
      <trkpt lat="43.58642" lon="6.16466">
        <ele>378.9</ele>
        <time>2017-05-16T13:12:56Z</time>
      </trkpt>
      <trkpt lat="43.58652" lon="6.16461">
        <ele>378.9</ele>
        <time>2017-05-16T13:13:07Z</time>
      </trkpt>
      <trkpt lat="43.58652" lon="6.16461">
        <ele>379.86</ele>
        <time>2017-05-16T13:13:18Z</time>
      </trkpt>
      <trkpt lat="43.58651" lon="6.16461">
        <ele>379.86</ele>
        <time>2017-05-16T13:13:39Z</time>
      </trkpt>
      <trkpt lat="43.58651" lon="6.16461">
        <ele>379.86</ele>
        <time>2017-05-16T13:14:03Z</time>
      </trkpt>
      <trkpt lat="43.5865" lon="6.16461">
        <ele>380.82</ele>
        <time>2017-05-16T13:14:28Z</time>
      </trkpt>
      <trkpt lat="43.58649" lon="6.16462">
        <ele>381.3</ele>
        <time>2017-05-16T13:14:41Z</time>
      </trkpt>
      <trkpt lat="43.5865" lon="6.16463">
        <ele>383.7</ele>
        <time>2017-05-16T13:14:56Z</time>
      </trkpt>
      <trkpt lat="43.5865" lon="6.16462">
        <ele>384.18</ele>
        <time>2017-05-16T13:15:12Z</time>
      </trkpt>
      <trkpt lat="43.58651" lon="6.16463">
        <ele>384.18</ele>
        <time>2017-05-16T13:15:34Z</time>
      </trkpt>
      <trkpt lat="43.58651" lon="6.16463">
        <ele>382.26</ele>
        <time>2017-05-16T13:15:52Z</time>
      </trkpt>
      <trkpt lat="43.58651" lon="6.16463">
        <ele>387.07</ele>
        <time>2017-05-16T13:15:57Z</time>
      </trkpt>
      <trkpt lat="43.58651" lon="6.16463">
        <ele>383.7</ele>
        <time>2017-05-16T13:16:00Z</time>
      </trkpt>
      <trkpt lat="43.58651" lon="6.16463">
        <ele>383.7</ele>
        <time>2017-05-16T13:16:19Z</time>
      </trkpt>
      <trkpt lat="43.58652" lon="6.16463">
        <ele>383.22</ele>
        <time>2017-05-16T13:16:43Z</time>
      </trkpt>
      <trkpt lat="43.58653" lon="6.16463">
        <ele>384.18</ele>
        <time>2017-05-16T13:17:01Z</time>
      </trkpt>
      <trkpt lat="43.58655" lon="6.16465">
        <ele>385.15</ele>
        <time>2017-05-16T13:17:10Z</time>
      </trkpt>
      <trkpt lat="43.58659" lon="6.16464">
        <ele>386.11</ele>
        <time>2017-05-16T13:17:23Z</time>
      </trkpt>
      <trkpt lat="43.58659" lon="6.16465">
        <ele>387.55</ele>
        <time>2017-05-16T13:17:34Z</time>
      </trkpt>
      <trkpt lat="43.5866" lon="6.16467">
        <ele>389.47</ele>
        <time>2017-05-16T13:17:46Z</time>
      </trkpt>
      <trkpt lat="43.58667" lon="6.16464">
        <ele>389.95</ele>
        <time>2017-05-16T13:17:57Z</time>
      </trkpt>
      <trkpt lat="43.5867" lon="6.1646">
        <ele>390.91</ele>
        <time>2017-05-16T13:18:08Z</time>
      </trkpt>
      <trkpt lat="43.58673" lon="6.1646">
        <ele>390.43</ele>
        <time>2017-05-16T13:18:18Z</time>
      </trkpt>
      <trkpt lat="43.58677" lon="6.16459">
        <ele>389.47</ele>
        <time>2017-05-16T13:18:28Z</time>
      </trkpt>
      <trkpt lat="43.58677" lon="6.16457">
        <ele>389.47</ele>
        <time>2017-05-16T13:18:39Z</time>
      </trkpt>
      <trkpt lat="43.58679" lon="6.16456">
        <ele>388.51</ele>
        <time>2017-05-16T13:19:00Z</time>
      </trkpt>
      <trkpt lat="43.58682" lon="6.16452">
        <ele>387.55</ele>
        <time>2017-05-16T13:19:08Z</time>
      </trkpt>
      <trkpt lat="43.58682" lon="6.16451">
        <ele>387.07</ele>
        <time>2017-05-16T13:19:23Z</time>
      </trkpt>
      <trkpt lat="43.58682" lon="6.16451">
        <ele>385.63</ele>
        <time>2017-05-16T13:19:34Z</time>
      </trkpt>
      <trkpt lat="43.58679" lon="6.16448">
        <ele>383.7</ele>
        <time>2017-05-16T13:19:44Z</time>
      </trkpt>
      <trkpt lat="43.58679" lon="6.16443">
        <ele>381.78</ele>
        <time>2017-05-16T13:19:54Z</time>
      </trkpt>
      <trkpt lat="43.58679" lon="6.16436">
        <ele>381.3</ele>
        <time>2017-05-16T13:20:02Z</time>
      </trkpt>
      <trkpt lat="43.58676" lon="6.16426">
        <ele>380.82</ele>
        <time>2017-05-16T13:20:09Z</time>
      </trkpt>
      <trkpt lat="43.58676" lon="6.16408">
        <ele>380.34</ele>
        <time>2017-05-16T13:20:21Z</time>
      </trkpt>
      <trkpt lat="43.58669" lon="6.164">
        <ele>379.86</ele>
        <time>2017-05-16T13:20:30Z</time>
      </trkpt>
      <trkpt lat="43.58666" lon="6.1639">
        <ele>381.78</ele>
        <time>2017-05-16T13:20:38Z</time>
      </trkpt>
      <trkpt lat="43.58666" lon="6.16389">
        <ele>377.45</ele>
        <time>2017-05-16T13:20:39Z</time>
      </trkpt>
      <trkpt lat="43.58665" lon="6.16389">
        <ele>383.22</ele>
        <time>2017-05-16T13:20:40Z</time>
      </trkpt>
      <trkpt lat="43.58663" lon="6.1638">
        <ele>380.34</ele>
        <time>2017-05-16T13:20:52Z</time>
      </trkpt>
      <trkpt lat="43.58662" lon="6.16376">
        <ele>377.45</ele>
        <time>2017-05-16T13:20:55Z</time>
      </trkpt>
      <trkpt lat="43.58663" lon="6.16375">
        <ele>381.3</ele>
        <time>2017-05-16T13:20:56Z</time>
      </trkpt>
      <trkpt lat="43.58661" lon="6.16364">
        <ele>377.94</ele>
        <time>2017-05-16T13:21:05Z</time>
      </trkpt>
      <trkpt lat="43.58661" lon="6.16363">
        <ele>383.7</ele>
        <time>2017-05-16T13:21:06Z</time>
      </trkpt>
      <trkpt lat="43.58661" lon="6.16361">
        <ele>379.86</ele>
        <time>2017-05-16T13:21:09Z</time>
      </trkpt>
      <trkpt lat="43.58661" lon="6.16361">
        <ele>379.86</ele>
        <time>2017-05-16T13:21:10Z</time>
      </trkpt>
      <trkpt lat="43.58661" lon="6.1636">
        <ele>383.7</ele>
        <time>2017-05-16T13:21:11Z</time>
      </trkpt>
      <trkpt lat="43.58661" lon="6.16359">
        <ele>378.42</ele>
        <time>2017-05-16T13:21:12Z</time>
      </trkpt>
      <trkpt lat="43.58661" lon="6.16358">
        <ele>382.26</ele>
        <time>2017-05-16T13:21:13Z</time>
      </trkpt>
      <trkpt lat="43.5866" lon="6.16347">
        <ele>380.82</ele>
        <time>2017-05-16T13:21:22Z</time>
      </trkpt>
      <trkpt lat="43.5866" lon="6.16337">
        <ele>380.82</ele>
        <time>2017-05-16T13:21:29Z</time>
      </trkpt>
      <trkpt lat="43.58657" lon="6.16328">
        <ele>380.82</ele>
        <time>2017-05-16T13:21:37Z</time>
      </trkpt>
      <trkpt lat="43.58654" lon="6.16318">
        <ele>381.3</ele>
        <time>2017-05-16T13:21:46Z</time>
      </trkpt>
      <trkpt lat="43.58648" lon="6.16308">
        <ele>381.3</ele>
        <time>2017-05-16T13:21:55Z</time>
      </trkpt>
      <trkpt lat="43.58645" lon="6.16288">
        <ele>381.3</ele>
        <time>2017-05-16T13:22:05Z</time>
      </trkpt>
      <trkpt lat="43.58644" lon="6.16278">
        <ele>380.82</ele>
        <time>2017-05-16T13:22:13Z</time>
      </trkpt>
      <trkpt lat="43.58645" lon="6.16268">
        <ele>380.82</ele>
        <time>2017-05-16T13:22:21Z</time>
      </trkpt>
      <trkpt lat="43.58648" lon="6.16258">
        <ele>380.82</ele>
        <time>2017-05-16T13:22:30Z</time>
      </trkpt>
      <trkpt lat="43.58655" lon="6.16253">
        <ele>381.3</ele>
        <time>2017-05-16T13:22:39Z</time>
      </trkpt>
      <trkpt lat="43.58664" lon="6.16255">
        <ele>381.3</ele>
        <time>2017-05-16T13:22:49Z</time>
      </trkpt>
      <trkpt lat="43.5867" lon="6.1626">
        <ele>380.82</ele>
        <time>2017-05-16T13:22:58Z</time>
      </trkpt>
      <trkpt lat="43.58678" lon="6.16264">
        <ele>380.82</ele>
        <time>2017-05-16T13:23:09Z</time>
      </trkpt>
      <trkpt lat="43.58688" lon="6.16266">
        <ele>380.82</ele>
        <time>2017-05-16T13:23:19Z</time>
      </trkpt>
      <trkpt lat="43.58695" lon="6.16267">
        <ele>381.3</ele>
        <time>2017-05-16T13:23:26Z</time>
      </trkpt>
      <trkpt lat="43.587" lon="6.16269">
        <ele>381.3</ele>
        <time>2017-05-16T13:23:33Z</time>
      </trkpt>
      <trkpt lat="43.5871" lon="6.16271">
        <ele>381.3</ele>
        <time>2017-05-16T13:23:44Z</time>
      </trkpt>
      <trkpt lat="43.58721" lon="6.16273">
        <ele>381.78</ele>
        <time>2017-05-16T13:23:55Z</time>
      </trkpt>
      <trkpt lat="43.58725" lon="6.16275">
        <ele>381.78</ele>
        <time>2017-05-16T13:24:04Z</time>
      </trkpt>
      <trkpt lat="43.58732" lon="6.16279">
        <ele>382.26</ele>
        <time>2017-05-16T13:24:13Z</time>
      </trkpt>
      <trkpt lat="43.58744" lon="6.16284">
        <ele>382.74</ele>
        <time>2017-05-16T13:24:23Z</time>
      </trkpt>
      <trkpt lat="43.58746" lon="6.16287">
        <ele>382.74</ele>
        <time>2017-05-16T13:24:33Z</time>
      </trkpt>
      <trkpt lat="43.58748" lon="6.16287">
        <ele>382.74</ele>
        <time>2017-05-16T13:24:52Z</time>
      </trkpt>
      <trkpt lat="43.58748" lon="6.16287">
        <ele>382.74</ele>
        <time>2017-05-16T13:25:16Z</time>
      </trkpt>
      <trkpt lat="43.58748" lon="6.16288">
        <ele>382.74</ele>
        <time>2017-05-16T13:25:34Z</time>
      </trkpt>
      <trkpt lat="43.58746" lon="6.16288">
        <ele>383.22</ele>
        <time>2017-05-16T13:25:58Z</time>
      </trkpt>
      <trkpt lat="43.58746" lon="6.16288">
        <ele>383.22</ele>
        <time>2017-05-16T13:26:12Z</time>
      </trkpt>
      <trkpt lat="43.58746" lon="6.16288">
        <ele>383.22</ele>
        <time>2017-05-16T13:26:27Z</time>
      </trkpt>
      <trkpt lat="43.58746" lon="6.16287">
        <ele>383.22</ele>
        <time>2017-05-16T13:26:44Z</time>
      </trkpt>
      <trkpt lat="43.58747" lon="6.16286">
        <ele>383.7</ele>
        <time>2017-05-16T13:26:58Z</time>
      </trkpt>
      <trkpt lat="43.58747" lon="6.16286">
        <ele>383.22</ele>
        <time>2017-05-16T13:27:14Z</time>
      </trkpt>
      <trkpt lat="43.58747" lon="6.16287">
        <ele>383.7</ele>
        <time>2017-05-16T13:27:26Z</time>
      </trkpt>
      <trkpt lat="43.58748" lon="6.16288">
        <ele>383.7</ele>
        <time>2017-05-16T13:27:37Z</time>
      </trkpt>
      <trkpt lat="43.58749" lon="6.16289">
        <ele>383.22</ele>
        <time>2017-05-16T13:27:55Z</time>
      </trkpt>
      <trkpt lat="43.58749" lon="6.16289">
        <ele>383.7</ele>
        <time>2017-05-16T13:28:15Z</time>
      </trkpt>
      <trkpt lat="43.58749" lon="6.16291">
        <ele>383.22</ele>
        <time>2017-05-16T13:28:30Z</time>
      </trkpt>
      <trkpt lat="43.58749" lon="6.16292">
        <ele>383.7</ele>
        <time>2017-05-16T13:28:44Z</time>
      </trkpt>
      <trkpt lat="43.58749" lon="6.16292">
        <ele>383.7</ele>
        <time>2017-05-16T13:29:06Z</time>
      </trkpt>
      <trkpt lat="43.58748" lon="6.16293">
        <ele>383.7</ele>
        <time>2017-05-16T13:29:26Z</time>
      </trkpt>
      <trkpt lat="43.58748" lon="6.16293">
        <ele>383.7</ele>
        <time>2017-05-16T13:29:44Z</time>
      </trkpt>
      <trkpt lat="43.58748" lon="6.16293">
        <ele>383.7</ele>
        <time>2017-05-16T13:30:07Z</time>
      </trkpt>
      <trkpt lat="43.58748" lon="6.16293">
        <ele>383.7</ele>
        <time>2017-05-16T13:30:31Z</time>
      </trkpt>
      <trkpt lat="43.58748" lon="6.16293">
        <ele>383.7</ele>
        <time>2017-05-16T13:30:55Z</time>
      </trkpt>
      <trkpt lat="43.58748" lon="6.16293">
        <ele>383.7</ele>
        <time>2017-05-16T13:31:12Z</time>
      </trkpt>
      <trkpt lat="43.58748" lon="6.16293">
        <ele>383.7</ele>
        <time>2017-05-16T13:31:28Z</time>
      </trkpt>
      <trkpt lat="43.58749" lon="6.16293">
        <ele>383.22</ele>
        <time>2017-05-16T13:31:44Z</time>
      </trkpt>
      <trkpt lat="43.58748" lon="6.16293">
        <ele>383.7</ele>
        <time>2017-05-16T13:32:05Z</time>
      </trkpt>
      <trkpt lat="43.58747" lon="6.16294">
        <ele>383.22</ele>
        <time>2017-05-16T13:32:25Z</time>
      </trkpt>
      <trkpt lat="43.58748" lon="6.16292">
        <ele>383.22</ele>
        <time>2017-05-16T13:32:37Z</time>
      </trkpt>
      <trkpt lat="43.58748" lon="6.16291">
        <ele>383.22</ele>
        <time>2017-05-16T13:32:38Z</time>
      </trkpt>
      <trkpt lat="43.58748" lon="6.16287">
        <ele>383.22</ele>
        <time>2017-05-16T13:32:49Z</time>
      </trkpt>
      <trkpt lat="43.5875" lon="6.16281">
        <ele>383.22</ele>
        <time>2017-05-16T13:32:54Z</time>
      </trkpt>
      <trkpt lat="43.58752" lon="6.16275">
        <ele>383.22</ele>
        <time>2017-05-16T13:33:04Z</time>
      </trkpt>
      <trkpt lat="43.58752" lon="6.16268">
        <ele>383.22</ele>
        <time>2017-05-16T13:33:13Z</time>
      </trkpt>
      <trkpt lat="43.58753" lon="6.16267">
        <ele>383.22</ele>
        <time>2017-05-16T13:33:15Z</time>
      </trkpt>
      <trkpt lat="43.58749" lon="6.16274">
        <ele>383.22</ele>
        <time>2017-05-16T13:33:28Z</time>
      </trkpt>
      <trkpt lat="43.58748" lon="6.16274">
        <ele>383.22</ele>
        <time>2017-05-16T13:33:39Z</time>
      </trkpt>
      <trkpt lat="43.58747" lon="6.16279">
        <ele>383.22</ele>
        <time>2017-05-16T13:33:45Z</time>
      </trkpt>
      <trkpt lat="43.58745" lon="6.16287">
        <ele>383.22</ele>
        <time>2017-05-16T13:33:57Z</time>
      </trkpt>
      <trkpt lat="43.58745" lon="6.16287">
        <ele>382.74</ele>
        <time>2017-05-16T13:34:14Z</time>
      </trkpt>
      <trkpt lat="43.58746" lon="6.16287">
        <ele>383.22</ele>
        <time>2017-05-16T13:34:22Z</time>
      </trkpt>
      <trkpt lat="43.5875" lon="6.16282">
        <ele>383.22</ele>
        <time>2017-05-16T13:34:29Z</time>
      </trkpt>
      <trkpt lat="43.58751" lon="6.1628">
        <ele>383.22</ele>
        <time>2017-05-16T13:34:31Z</time>
      </trkpt>
      <trkpt lat="43.58753" lon="6.16268">
        <ele>383.22</ele>
        <time>2017-05-16T13:34:42Z</time>
      </trkpt>
      <trkpt lat="43.58751" lon="6.16262">
        <ele>383.22</ele>
        <time>2017-05-16T13:34:48Z</time>
      </trkpt>
      <trkpt lat="43.58746" lon="6.1626">
        <ele>382.74</ele>
        <time>2017-05-16T13:34:51Z</time>
      </trkpt>
      <trkpt lat="43.58736" lon="6.16256">
        <ele>381.78</ele>
        <time>2017-05-16T13:35:01Z</time>
      </trkpt>
      <trkpt lat="43.58733" lon="6.16253">
        <ele>382.26</ele>
        <time>2017-05-16T13:35:05Z</time>
      </trkpt>
      <trkpt lat="43.58724" lon="6.16248">
        <ele>381.78</ele>
        <time>2017-05-16T13:35:15Z</time>
      </trkpt>
      <trkpt lat="43.58713" lon="6.16245">
        <ele>381.78</ele>
        <time>2017-05-16T13:35:25Z</time>
      </trkpt>
      <trkpt lat="43.58703" lon="6.1624">
        <ele>381.3</ele>
        <time>2017-05-16T13:35:36Z</time>
      </trkpt>
      <trkpt lat="43.58697" lon="6.16237">
        <ele>381.78</ele>
        <time>2017-05-16T13:35:41Z</time>
      </trkpt>
      <trkpt lat="43.58695" lon="6.16235">
        <ele>381.78</ele>
        <time>2017-05-16T13:35:44Z</time>
      </trkpt>
      <trkpt lat="43.58692" lon="6.16233">
        <ele>381.78</ele>
        <time>2017-05-16T13:35:48Z</time>
      </trkpt>
      <trkpt lat="43.58689" lon="6.16228">
        <ele>381.78</ele>
        <time>2017-05-16T13:35:52Z</time>
      </trkpt>
      <trkpt lat="43.58682" lon="6.16227">
        <ele>381.3</ele>
        <time>2017-05-16T13:35:59Z</time>
      </trkpt>
      <trkpt lat="43.58674" lon="6.16225">
        <ele>381.3</ele>
        <time>2017-05-16T13:36:08Z</time>
      </trkpt>
      <trkpt lat="43.58671" lon="6.16226">
        <ele>381.3</ele>
        <time>2017-05-16T13:36:12Z</time>
      </trkpt>
      <trkpt lat="43.58665" lon="6.16228">
        <ele>381.3</ele>
        <time>2017-05-16T13:36:23Z</time>
      </trkpt>
      <trkpt lat="43.58661" lon="6.16226">
        <ele>380.34</ele>
        <time>2017-05-16T13:36:35Z</time>
      </trkpt>
      <trkpt lat="43.58656" lon="6.16224">
        <ele>380.34</ele>
        <time>2017-05-16T13:36:50Z</time>
      </trkpt>
      <trkpt lat="43.58654" lon="6.16222">
        <ele>380.34</ele>
        <time>2017-05-16T13:37:04Z</time>
      </trkpt>
      <trkpt lat="43.58652" lon="6.16223">
        <ele>380.82</ele>
        <time>2017-05-16T13:37:18Z</time>
      </trkpt>
      <trkpt lat="43.58651" lon="6.16221">
        <ele>380.34</ele>
        <time>2017-05-16T13:37:30Z</time>
      </trkpt>
      <trkpt lat="43.5865" lon="6.16221">
        <ele>380.34</ele>
        <time>2017-05-16T13:37:47Z</time>
      </trkpt>
      <trkpt lat="43.58649" lon="6.16222">
        <ele>380.34</ele>
        <time>2017-05-16T13:38:06Z</time>
      </trkpt>
      <trkpt lat="43.58649" lon="6.16223">
        <ele>380.34</ele>
        <time>2017-05-16T13:38:30Z</time>
      </trkpt>
      <trkpt lat="43.58649" lon="6.16223">
        <ele>380.34</ele>
        <time>2017-05-16T13:38:51Z</time>
      </trkpt>
      <trkpt lat="43.58647" lon="6.16224">
        <ele>380.34</ele>
        <time>2017-05-16T13:39:04Z</time>
      </trkpt>
      <trkpt lat="43.58637" lon="6.16219">
        <ele>379.86</ele>
        <time>2017-05-16T13:39:12Z</time>
      </trkpt>
      <trkpt lat="43.58634" lon="6.16213">
        <ele>379.86</ele>
        <time>2017-05-16T13:39:16Z</time>
      </trkpt>
      <trkpt lat="43.58639" lon="6.16199">
        <ele>379.38</ele>
        <time>2017-05-16T13:39:27Z</time>
      </trkpt>
      <trkpt lat="43.58645" lon="6.16188">
        <ele>379.38</ele>
        <time>2017-05-16T13:39:35Z</time>
      </trkpt>
      <trkpt lat="43.58646" lon="6.16177">
        <ele>379.38</ele>
        <time>2017-05-16T13:39:44Z</time>
      </trkpt>
      <trkpt lat="43.58646" lon="6.16176">
        <ele>378.9</ele>
        <time>2017-05-16T13:39:45Z</time>
      </trkpt>
      <trkpt lat="43.58645" lon="6.16168">
        <ele>379.38</ele>
        <time>2017-05-16T13:39:51Z</time>
      </trkpt>
      <trkpt lat="43.58646" lon="6.16158">
        <ele>379.38</ele>
        <time>2017-05-16T13:39:58Z</time>
      </trkpt>
      <trkpt lat="43.58646" lon="6.16144">
        <ele>379.38</ele>
        <time>2017-05-16T13:40:09Z</time>
      </trkpt>
      <trkpt lat="43.58646" lon="6.16137">
        <ele>378.9</ele>
        <time>2017-05-16T13:40:19Z</time>
      </trkpt>
      <trkpt lat="43.58647" lon="6.16136">
        <ele>379.38</ele>
        <time>2017-05-16T13:40:25Z</time>
      </trkpt>
      <trkpt lat="43.58651" lon="6.16127">
        <ele>379.38</ele>
        <time>2017-05-16T13:40:32Z</time>
      </trkpt>
      <trkpt lat="43.58652" lon="6.16114">
        <ele>379.86</ele>
        <time>2017-05-16T13:40:41Z</time>
      </trkpt>
      <trkpt lat="43.58655" lon="6.16107">
        <ele>379.38</ele>
        <time>2017-05-16T13:40:46Z</time>
      </trkpt>
      <trkpt lat="43.58654" lon="6.16103">
        <ele>379.86</ele>
        <time>2017-05-16T13:40:49Z</time>
      </trkpt>
      <trkpt lat="43.58655" lon="6.1609">
        <ele>379.38</ele>
        <time>2017-05-16T13:40:58Z</time>
      </trkpt>
      <trkpt lat="43.58655" lon="6.1608">
        <ele>379.86</ele>
        <time>2017-05-16T13:41:05Z</time>
      </trkpt>
      <trkpt lat="43.58656" lon="6.16067">
        <ele>379.86</ele>
        <time>2017-05-16T13:41:14Z</time>
      </trkpt>
      <trkpt lat="43.58656" lon="6.16066">
        <ele>379.86</ele>
        <time>2017-05-16T13:41:15Z</time>
      </trkpt>
      <trkpt lat="43.58658" lon="6.16061">
        <ele>379.38</ele>
        <time>2017-05-16T13:41:19Z</time>
      </trkpt>
      <trkpt lat="43.5866" lon="6.16047">
        <ele>379.38</ele>
        <time>2017-05-16T13:41:29Z</time>
      </trkpt>
      <trkpt lat="43.58663" lon="6.16033">
        <ele>379.86</ele>
        <time>2017-05-16T13:41:40Z</time>
      </trkpt>
      <trkpt lat="43.58666" lon="6.16023">
        <ele>379.38</ele>
        <time>2017-05-16T13:41:47Z</time>
      </trkpt>
      <trkpt lat="43.58666" lon="6.16018">
        <ele>379.86</ele>
        <time>2017-05-16T13:41:51Z</time>
      </trkpt>
      <trkpt lat="43.58666" lon="6.16005">
        <ele>379.38</ele>
        <time>2017-05-16T13:42:01Z</time>
      </trkpt>
      <trkpt lat="43.58666" lon="6.15994">
        <ele>379.38</ele>
        <time>2017-05-16T13:42:10Z</time>
      </trkpt>
      <trkpt lat="43.58667" lon="6.15994">
        <ele>379.38</ele>
        <time>2017-05-16T13:42:15Z</time>
      </trkpt>
      <trkpt lat="43.58668" lon="6.15988">
        <ele>379.38</ele>
        <time>2017-05-16T13:42:20Z</time>
      </trkpt>
      <trkpt lat="43.58668" lon="6.15981">
        <ele>379.38</ele>
        <time>2017-05-16T13:42:25Z</time>
      </trkpt>
      <trkpt lat="43.58669" lon="6.15975">
        <ele>379.38</ele>
        <time>2017-05-16T13:42:29Z</time>
      </trkpt>
      <trkpt lat="43.58668" lon="6.15972">
        <ele>379.38</ele>
        <time>2017-05-16T13:42:33Z</time>
      </trkpt>
      <trkpt lat="43.58669" lon="6.15963">
        <ele>379.38</ele>
        <time>2017-05-16T13:42:39Z</time>
      </trkpt>
      <trkpt lat="43.58674" lon="6.15956">
        <ele>379.86</ele>
        <time>2017-05-16T13:42:46Z</time>
      </trkpt>
      <trkpt lat="43.58674" lon="6.15951">
        <ele>379.86</ele>
        <time>2017-05-16T13:42:49Z</time>
      </trkpt>
      <trkpt lat="43.58674" lon="6.15935">
        <ele>379.38</ele>
        <time>2017-05-16T13:42:59Z</time>
      </trkpt>
      <trkpt lat="43.58675" lon="6.15924">
        <ele>378.9</ele>
        <time>2017-05-16T13:43:08Z</time>
      </trkpt>
      <trkpt lat="43.58675" lon="6.15908">
        <ele>379.38</ele>
        <time>2017-05-16T13:43:18Z</time>
      </trkpt>
      <trkpt lat="43.58676" lon="6.15904">
        <ele>379.38</ele>
        <time>2017-05-16T13:43:22Z</time>
      </trkpt>
      <trkpt lat="43.58679" lon="6.15889">
        <ele>379.38</ele>
        <time>2017-05-16T13:43:32Z</time>
      </trkpt>
      <trkpt lat="43.58678" lon="6.15886">
        <ele>379.38</ele>
        <time>2017-05-16T13:43:34Z</time>
      </trkpt>
      <trkpt lat="43.58679" lon="6.1587">
        <ele>379.38</ele>
        <time>2017-05-16T13:43:46Z</time>
      </trkpt>
      <trkpt lat="43.58681" lon="6.15859">
        <ele>379.38</ele>
        <time>2017-05-16T13:43:55Z</time>
      </trkpt>
      <trkpt lat="43.58683" lon="6.15853">
        <ele>379.38</ele>
        <time>2017-05-16T13:43:59Z</time>
      </trkpt>
      <trkpt lat="43.58684" lon="6.15847">
        <ele>379.38</ele>
        <time>2017-05-16T13:44:03Z</time>
      </trkpt>
      <trkpt lat="43.58684" lon="6.15831">
        <ele>379.38</ele>
        <time>2017-05-16T13:44:15Z</time>
      </trkpt>
      <trkpt lat="43.58686" lon="6.15822">
        <ele>379.38</ele>
        <time>2017-05-16T13:44:22Z</time>
      </trkpt>
      <trkpt lat="43.58687" lon="6.15808">
        <ele>379.38</ele>
        <time>2017-05-16T13:44:32Z</time>
      </trkpt>
      <trkpt lat="43.58687" lon="6.15801">
        <ele>379.86</ele>
        <time>2017-05-16T13:44:38Z</time>
      </trkpt>
      <trkpt lat="43.58687" lon="6.15788">
        <ele>379.86</ele>
        <time>2017-05-16T13:44:49Z</time>
      </trkpt>
      <trkpt lat="43.58687" lon="6.15787">
        <ele>379.86</ele>
        <time>2017-05-16T13:44:50Z</time>
      </trkpt>
      <trkpt lat="43.58687" lon="6.15782">
        <ele>379.86</ele>
        <time>2017-05-16T13:44:53Z</time>
      </trkpt>
      <trkpt lat="43.58689" lon="6.15764">
        <ele>380.34</ele>
        <time>2017-05-16T13:45:06Z</time>
      </trkpt>
      <trkpt lat="43.58689" lon="6.1576">
        <ele>380.34</ele>
        <time>2017-05-16T13:45:09Z</time>
      </trkpt>
      <trkpt lat="43.5869" lon="6.15755">
        <ele>380.34</ele>
        <time>2017-05-16T13:45:13Z</time>
      </trkpt>
      <trkpt lat="43.5869" lon="6.15744">
        <ele>380.34</ele>
        <time>2017-05-16T13:45:22Z</time>
      </trkpt>
      <trkpt lat="43.58691" lon="6.15739">
        <ele>379.86</ele>
        <time>2017-05-16T13:45:26Z</time>
      </trkpt>
      <trkpt lat="43.58693" lon="6.15733">
        <ele>380.34</ele>
        <time>2017-05-16T13:45:31Z</time>
      </trkpt>
      <trkpt lat="43.58694" lon="6.15729">
        <ele>379.86</ele>
        <time>2017-05-16T13:45:34Z</time>
      </trkpt>
      <trkpt lat="43.58695" lon="6.15719">
        <ele>380.34</ele>
        <time>2017-05-16T13:45:44Z</time>
      </trkpt>
      <trkpt lat="43.58695" lon="6.1571">
        <ele>380.34</ele>
        <time>2017-05-16T13:45:53Z</time>
      </trkpt>
      <trkpt lat="43.58692" lon="6.15707">
        <ele>380.34</ele>
        <time>2017-05-16T13:45:57Z</time>
      </trkpt>
      <trkpt lat="43.58682" lon="6.15704">
        <ele>379.86</ele>
        <time>2017-05-16T13:46:09Z</time>
      </trkpt>
      <trkpt lat="43.58679" lon="6.15701">
        <ele>379.86</ele>
        <time>2017-05-16T13:46:24Z</time>
      </trkpt>
      <trkpt lat="43.58677" lon="6.157">
        <ele>379.86</ele>
        <time>2017-05-16T13:46:26Z</time>
      </trkpt>
      <trkpt lat="43.58676" lon="6.15699">
        <ele>380.82</ele>
        <time>2017-05-16T13:46:28Z</time>
      </trkpt>
      <trkpt lat="43.58671" lon="6.15699">
        <ele>379.86</ele>
        <time>2017-05-16T13:46:32Z</time>
      </trkpt>
      <trkpt lat="43.58663" lon="6.15696">
        <ele>379.86</ele>
        <time>2017-05-16T13:46:42Z</time>
      </trkpt>
      <trkpt lat="43.58661" lon="6.15695">
        <ele>380.34</ele>
        <time>2017-05-16T13:46:45Z</time>
      </trkpt>
      <trkpt lat="43.58654" lon="6.15693">
        <ele>380.82</ele>
        <time>2017-05-16T13:46:55Z</time>
      </trkpt>
      <trkpt lat="43.58648" lon="6.15691">
        <ele>381.3</ele>
        <time>2017-05-16T13:47:00Z</time>
      </trkpt>
      <trkpt lat="43.58641" lon="6.1569">
        <ele>381.3</ele>
        <time>2017-05-16T13:47:11Z</time>
      </trkpt>
      <trkpt lat="43.58639" lon="6.15693">
        <ele>381.3</ele>
        <time>2017-05-16T13:47:27Z</time>
      </trkpt>
      <trkpt lat="43.58638" lon="6.15694">
        <ele>380.82</ele>
        <time>2017-05-16T13:47:44Z</time>
      </trkpt>
      <trkpt lat="43.58638" lon="6.15694">
        <ele>381.3</ele>
        <time>2017-05-16T13:48:09Z</time>
      </trkpt>
      <trkpt lat="43.58638" lon="6.15694">
        <ele>380.82</ele>
        <time>2017-05-16T13:48:27Z</time>
      </trkpt>
      <trkpt lat="43.58634" lon="6.15694">
        <ele>380.82</ele>
        <time>2017-05-16T13:48:39Z</time>
      </trkpt>
      <trkpt lat="43.5863" lon="6.15698">
        <ele>380.82</ele>
        <time>2017-05-16T13:48:45Z</time>
      </trkpt>
      <trkpt lat="43.58628" lon="6.15703">
        <ele>380.34</ele>
        <time>2017-05-16T13:48:49Z</time>
      </trkpt>
      <trkpt lat="43.58627" lon="6.15706">
        <ele>380.34</ele>
        <time>2017-05-16T13:48:52Z</time>
      </trkpt>
      <trkpt lat="43.58627" lon="6.15711">
        <ele>380.34</ele>
        <time>2017-05-16T13:48:56Z</time>
      </trkpt>
      <trkpt lat="43.58627" lon="6.15725">
        <ele>380.34</ele>
        <time>2017-05-16T13:49:07Z</time>
      </trkpt>
      <trkpt lat="43.58625" lon="6.15739">
        <ele>380.34</ele>
        <time>2017-05-16T13:49:19Z</time>
      </trkpt>
      <trkpt lat="43.58622" lon="6.1575">
        <ele>380.34</ele>
        <time>2017-05-16T13:49:29Z</time>
      </trkpt>
      <trkpt lat="43.58621" lon="6.15754">
        <ele>380.34</ele>
        <time>2017-05-16T13:49:32Z</time>
      </trkpt>
      <trkpt lat="43.58619" lon="6.15758">
        <ele>380.34</ele>
        <time>2017-05-16T13:49:36Z</time>
      </trkpt>
      <trkpt lat="43.58619" lon="6.15763">
        <ele>380.34</ele>
        <time>2017-05-16T13:49:40Z</time>
      </trkpt>
      <trkpt lat="43.58619" lon="6.1578">
        <ele>379.86</ele>
        <time>2017-05-16T13:49:53Z</time>
      </trkpt>
      <trkpt lat="43.5862" lon="6.15783">
        <ele>380.34</ele>
        <time>2017-05-16T13:49:56Z</time>
      </trkpt>
      <trkpt lat="43.58619" lon="6.15794">
        <ele>379.86</ele>
        <time>2017-05-16T13:50:05Z</time>
      </trkpt>
      <trkpt lat="43.58617" lon="6.15809">
        <ele>378.9</ele>
        <time>2017-05-16T13:50:17Z</time>
      </trkpt>
      <trkpt lat="43.58617" lon="6.15821">
        <ele>379.38</ele>
        <time>2017-05-16T13:50:25Z</time>
      </trkpt>
      <trkpt lat="43.58615" lon="6.15828">
        <ele>379.86</ele>
        <time>2017-05-16T13:50:31Z</time>
      </trkpt>
      <trkpt lat="43.58614" lon="6.15841">
        <ele>379.86</ele>
        <time>2017-05-16T13:50:41Z</time>
      </trkpt>
      <trkpt lat="43.58614" lon="6.15853">
        <ele>379.86</ele>
        <time>2017-05-16T13:50:50Z</time>
      </trkpt>
      <trkpt lat="43.58614" lon="6.1586">
        <ele>379.86</ele>
        <time>2017-05-16T13:50:55Z</time>
      </trkpt>
      <trkpt lat="43.58611" lon="6.15872">
        <ele>379.86</ele>
        <time>2017-05-16T13:51:06Z</time>
      </trkpt>
      <trkpt lat="43.58608" lon="6.15883">
        <ele>379.38</ele>
        <time>2017-05-16T13:51:16Z</time>
      </trkpt>
      <trkpt lat="43.58605" lon="6.15894">
        <ele>379.38</ele>
        <time>2017-05-16T13:51:26Z</time>
      </trkpt>
      <trkpt lat="43.58604" lon="6.1591">
        <ele>379.38</ele>
        <time>2017-05-16T13:51:39Z</time>
      </trkpt>
      <trkpt lat="43.58604" lon="6.15924">
        <ele>379.38</ele>
        <time>2017-05-16T13:51:50Z</time>
      </trkpt>
      <trkpt lat="43.58601" lon="6.15939">
        <ele>379.38</ele>
        <time>2017-05-16T13:52:02Z</time>
      </trkpt>
      <trkpt lat="43.58602" lon="6.15952">
        <ele>379.38</ele>
        <time>2017-05-16T13:52:13Z</time>
      </trkpt>
      <trkpt lat="43.58604" lon="6.1596">
        <ele>379.86</ele>
        <time>2017-05-16T13:52:28Z</time>
      </trkpt>
      <trkpt lat="43.58602" lon="6.15972">
        <ele>379.38</ele>
        <time>2017-05-16T13:52:38Z</time>
      </trkpt>
      <trkpt lat="43.586" lon="6.15985">
        <ele>379.38</ele>
        <time>2017-05-16T13:52:47Z</time>
      </trkpt>
      <trkpt lat="43.586" lon="6.15996">
        <ele>379.86</ele>
        <time>2017-05-16T13:52:56Z</time>
      </trkpt>
      <trkpt lat="43.58599" lon="6.16004">
        <ele>379.86</ele>
        <time>2017-05-16T13:53:06Z</time>
      </trkpt>
      <trkpt lat="43.58599" lon="6.16009">
        <ele>379.86</ele>
        <time>2017-05-16T13:53:11Z</time>
      </trkpt>
      <trkpt lat="43.58604" lon="6.16007">
        <ele>379.86</ele>
        <time>2017-05-16T13:53:23Z</time>
      </trkpt>
      <trkpt lat="43.58603" lon="6.16008">
        <ele>379.86</ele>
        <time>2017-05-16T13:53:42Z</time>
      </trkpt>
      <trkpt lat="43.58602" lon="6.16012">
        <ele>379.86</ele>
        <time>2017-05-16T13:53:54Z</time>
      </trkpt>
      <trkpt lat="43.586" lon="6.16023">
        <ele>379.86</ele>
        <time>2017-05-16T13:54:07Z</time>
      </trkpt>
      <trkpt lat="43.58595" lon="6.1604">
        <ele>380.34</ele>
        <time>2017-05-16T13:54:18Z</time>
      </trkpt>
      <trkpt lat="43.58595" lon="6.1605">
        <ele>380.82</ele>
        <time>2017-05-16T13:54:29Z</time>
      </trkpt>
      <trkpt lat="43.58596" lon="6.16068">
        <ele>380.82</ele>
        <time>2017-05-16T13:54:41Z</time>
      </trkpt>
      <trkpt lat="43.58595" lon="6.16078">
        <ele>380.34</ele>
        <time>2017-05-16T13:54:49Z</time>
      </trkpt>
      <trkpt lat="43.58594" lon="6.16092">
        <ele>380.82</ele>
        <time>2017-05-16T13:54:59Z</time>
      </trkpt>
      <trkpt lat="43.58591" lon="6.16103">
        <ele>380.34</ele>
        <time>2017-05-16T13:55:16Z</time>
      </trkpt>
      <trkpt lat="43.58595" lon="6.16118">
        <ele>380.82</ele>
        <time>2017-05-16T13:55:29Z</time>
      </trkpt>
      <trkpt lat="43.58599" lon="6.16128">
        <ele>380.34</ele>
        <time>2017-05-16T13:55:38Z</time>
      </trkpt>
      <trkpt lat="43.58602" lon="6.16142">
        <ele>379.86</ele>
        <time>2017-05-16T13:55:49Z</time>
      </trkpt>
      <trkpt lat="43.58599" lon="6.16149">
        <ele>380.34</ele>
        <time>2017-05-16T13:55:58Z</time>
      </trkpt>
      <trkpt lat="43.586" lon="6.16152">
        <ele>379.86</ele>
        <time>2017-05-16T13:56:01Z</time>
      </trkpt>
      <trkpt lat="43.58602" lon="6.16165">
        <ele>379.86</ele>
        <time>2017-05-16T13:56:11Z</time>
      </trkpt>
      <trkpt lat="43.58606" lon="6.16173">
        <ele>379.86</ele>
        <time>2017-05-16T13:56:22Z</time>
      </trkpt>
      <trkpt lat="43.58612" lon="6.16185">
        <ele>379.86</ele>
        <time>2017-05-16T13:56:35Z</time>
      </trkpt>
      <trkpt lat="43.58607" lon="6.16199">
        <ele>380.82</ele>
        <time>2017-05-16T13:56:46Z</time>
      </trkpt>
      <trkpt lat="43.58608" lon="6.16211">
        <ele>380.82</ele>
        <time>2017-05-16T13:56:58Z</time>
      </trkpt>
      <trkpt lat="43.58609" lon="6.16216">
        <ele>379.38</ele>
        <time>2017-05-16T13:57:09Z</time>
      </trkpt>
      <trkpt lat="43.5861" lon="6.1623">
        <ele>379.38</ele>
        <time>2017-05-16T13:57:21Z</time>
      </trkpt>
      <trkpt lat="43.58615" lon="6.16237">
        <ele>379.86</ele>
        <time>2017-05-16T13:57:33Z</time>
      </trkpt>
      <trkpt lat="43.58614" lon="6.16245">
        <ele>379.86</ele>
        <time>2017-05-16T13:57:44Z</time>
      </trkpt>
      <trkpt lat="43.58615" lon="6.16247">
        <ele>379.86</ele>
        <time>2017-05-16T13:57:56Z</time>
      </trkpt>
      <trkpt lat="43.58615" lon="6.16247">
        <ele>379.86</ele>
        <time>2017-05-16T13:58:02Z</time>
      </trkpt>
      <trkpt lat="43.58615" lon="6.16255">
        <ele>379.86</ele>
        <time>2017-05-16T13:58:10Z</time>
      </trkpt>
      <trkpt lat="43.58615" lon="6.16261">
        <ele>379.38</ele>
        <time>2017-05-16T13:58:23Z</time>
      </trkpt>
      <trkpt lat="43.58617" lon="6.16263">
        <ele>379.38</ele>
        <time>2017-05-16T13:58:31Z</time>
      </trkpt>
      <trkpt lat="43.58618" lon="6.16269">
        <ele>379.86</ele>
        <time>2017-05-16T13:58:39Z</time>
      </trkpt>
      <trkpt lat="43.58621" lon="6.16275">
        <ele>379.86</ele>
        <time>2017-05-16T13:58:50Z</time>
      </trkpt>
      <trkpt lat="43.58621" lon="6.16281">
        <ele>379.86</ele>
        <time>2017-05-16T13:59:00Z</time>
      </trkpt>
      <trkpt lat="43.58623" lon="6.16283">
        <ele>379.38</ele>
        <time>2017-05-16T13:59:09Z</time>
      </trkpt>
      <trkpt lat="43.58621" lon="6.16284">
        <ele>379.38</ele>
        <time>2017-05-16T13:59:12Z</time>
      </trkpt>
      <trkpt lat="43.58617" lon="6.16289">
        <ele>380.34</ele>
        <time>2017-05-16T13:59:23Z</time>
      </trkpt>
      <trkpt lat="43.58616" lon="6.16294">
        <ele>380.34</ele>
        <time>2017-05-16T13:59:35Z</time>
      </trkpt>
      <trkpt lat="43.5862" lon="6.16304">
        <ele>379.38</ele>
        <time>2017-05-16T13:59:44Z</time>
      </trkpt>
      <trkpt lat="43.5862" lon="6.1631">
        <ele>379.38</ele>
        <time>2017-05-16T13:59:55Z</time>
      </trkpt>
      <trkpt lat="43.58622" lon="6.16318">
        <ele>379.86</ele>
        <time>2017-05-16T14:00:03Z</time>
      </trkpt>
      <trkpt lat="43.58623" lon="6.16325">
        <ele>379.38</ele>
        <time>2017-05-16T14:00:10Z</time>
      </trkpt>
      <trkpt lat="43.58627" lon="6.16331">
        <ele>379.38</ele>
        <time>2017-05-16T14:00:17Z</time>
      </trkpt>
      <trkpt lat="43.58628" lon="6.16337">
        <ele>379.38</ele>
        <time>2017-05-16T14:00:25Z</time>
      </trkpt>
      <trkpt lat="43.58629" lon="6.16349">
        <ele>379.38</ele>
        <time>2017-05-16T14:00:38Z</time>
      </trkpt>
      <trkpt lat="43.58631" lon="6.16359">
        <ele>379.38</ele>
        <time>2017-05-16T14:00:49Z</time>
      </trkpt>
      <trkpt lat="43.58631" lon="6.16365">
        <ele>379.86</ele>
        <time>2017-05-16T14:01:01Z</time>
      </trkpt>
      <trkpt lat="43.58638" lon="6.16379">
        <ele>379.38</ele>
        <time>2017-05-16T14:01:13Z</time>
      </trkpt>
      <trkpt lat="43.58644" lon="6.16388">
        <ele>379.86</ele>
        <time>2017-05-16T14:01:22Z</time>
      </trkpt>
      <trkpt lat="43.58642" lon="6.16396">
        <ele>379.86</ele>
        <time>2017-05-16T14:01:35Z</time>
      </trkpt>
      <trkpt lat="43.5864" lon="6.16402">
        <ele>380.34</ele>
        <time>2017-05-16T14:01:42Z</time>
      </trkpt>
      <trkpt lat="43.5864" lon="6.16415">
        <ele>380.82</ele>
        <time>2017-05-16T14:01:53Z</time>
      </trkpt>
      <trkpt lat="43.58638" lon="6.1642">
        <ele>380.82</ele>
        <time>2017-05-16T14:01:57Z</time>
      </trkpt>
      <trkpt lat="43.58637" lon="6.16432">
        <ele>380.82</ele>
        <time>2017-05-16T14:02:07Z</time>
      </trkpt>
      <trkpt lat="43.58633" lon="6.16437">
        <ele>380.82</ele>
        <time>2017-05-16T14:02:12Z</time>
      </trkpt>
      <trkpt lat="43.5863" lon="6.16442">
        <ele>380.82</ele>
        <time>2017-05-16T14:02:20Z</time>
      </trkpt>
      <trkpt lat="43.58618" lon="6.16449">
        <ele>380.34</ele>
        <time>2017-05-16T14:02:31Z</time>
      </trkpt>
      <trkpt lat="43.58617" lon="6.16459">
        <ele>379.86</ele>
        <time>2017-05-16T14:02:40Z</time>
      </trkpt>
      <trkpt lat="43.5862" lon="6.16468">
        <ele>378.9</ele>
        <time>2017-05-16T14:02:49Z</time>
      </trkpt>
      <trkpt lat="43.58619" lon="6.16471">
        <ele>378.9</ele>
        <time>2017-05-16T14:02:54Z</time>
      </trkpt>
      <trkpt lat="43.58618" lon="6.16479">
        <ele>378.9</ele>
        <time>2017-05-16T14:03:02Z</time>
      </trkpt>
      <trkpt lat="43.58616" lon="6.16482">
        <ele>378.9</ele>
        <time>2017-05-16T14:03:11Z</time>
      </trkpt>
      <trkpt lat="43.58607" lon="6.16486">
        <ele>378.9</ele>
        <time>2017-05-16T14:03:20Z</time>
      </trkpt>
      <trkpt lat="43.58605" lon="6.16495">
        <ele>378.9</ele>
        <time>2017-05-16T14:03:29Z</time>
      </trkpt>
      <trkpt lat="43.58592" lon="6.16501">
        <ele>378.9</ele>
        <time>2017-05-16T14:03:41Z</time>
      </trkpt>
      <trkpt lat="43.58582" lon="6.16505">
        <ele>378.9</ele>
        <time>2017-05-16T14:03:52Z</time>
      </trkpt>
      <trkpt lat="43.58571" lon="6.16512">
        <ele>378.9</ele>
        <time>2017-05-16T14:04:04Z</time>
      </trkpt>
      <trkpt lat="43.58563" lon="6.1652">
        <ele>378.42</ele>
        <time>2017-05-16T14:04:14Z</time>
      </trkpt>
      <trkpt lat="43.58554" lon="6.16523">
        <ele>379.86</ele>
        <time>2017-05-16T14:04:27Z</time>
      </trkpt>
      <trkpt lat="43.58545" lon="6.16527">
        <ele>379.86</ele>
        <time>2017-05-16T14:04:36Z</time>
      </trkpt>
      <trkpt lat="43.58537" lon="6.16531">
        <ele>379.86</ele>
        <time>2017-05-16T14:04:45Z</time>
      </trkpt>
      <trkpt lat="43.5853" lon="6.16534">
        <ele>380.34</ele>
        <time>2017-05-16T14:04:57Z</time>
      </trkpt>
      <trkpt lat="43.58521" lon="6.16538">
        <ele>380.82</ele>
        <time>2017-05-16T14:05:07Z</time>
      </trkpt>
      <trkpt lat="43.58513" lon="6.16545">
        <ele>380.34</ele>
        <time>2017-05-16T14:05:18Z</time>
      </trkpt>
      <trkpt lat="43.58503" lon="6.16554">
        <ele>380.34</ele>
        <time>2017-05-16T14:05:32Z</time>
      </trkpt>
      <trkpt lat="43.58502" lon="6.16561">
        <ele>380.34</ele>
        <time>2017-05-16T14:05:41Z</time>
      </trkpt>
      <trkpt lat="43.58503" lon="6.16569">
        <ele>380.34</ele>
        <time>2017-05-16T14:05:53Z</time>
      </trkpt>
      <trkpt lat="43.58497" lon="6.16575">
        <ele>380.34</ele>
        <time>2017-05-16T14:06:04Z</time>
      </trkpt>
      <trkpt lat="43.58494" lon="6.16577">
        <ele>380.34</ele>
        <time>2017-05-16T14:06:06Z</time>
      </trkpt>
      <trkpt lat="43.58494" lon="6.16587">
        <ele>380.34</ele>
        <time>2017-05-16T14:06:15Z</time>
      </trkpt>
      <trkpt lat="43.58485" lon="6.16595">
        <ele>379.86</ele>
        <time>2017-05-16T14:06:28Z</time>
      </trkpt>
      <trkpt lat="43.58477" lon="6.16601">
        <ele>379.86</ele>
        <time>2017-05-16T14:06:39Z</time>
      </trkpt>
      <trkpt lat="43.5847" lon="6.16607">
        <ele>380.34</ele>
        <time>2017-05-16T14:06:52Z</time>
      </trkpt>
      <trkpt lat="43.5847" lon="6.16608">
        <ele>380.34</ele>
        <time>2017-05-16T14:06:55Z</time>
      </trkpt>
      <trkpt lat="43.58473" lon="6.16606">
        <ele>380.82</ele>
        <time>2017-05-16T14:07:08Z</time>
      </trkpt>
      <trkpt lat="43.58465" lon="6.16612">
        <ele>381.78</ele>
        <time>2017-05-16T14:07:19Z</time>
      </trkpt>
      <trkpt lat="43.58465" lon="6.1662">
        <ele>382.26</ele>
        <time>2017-05-16T14:07:31Z</time>
      </trkpt>
      <trkpt lat="43.58466" lon="6.16625">
        <ele>380.82</ele>
        <time>2017-05-16T14:07:42Z</time>
      </trkpt>
      <trkpt lat="43.58466" lon="6.16625">
        <ele>380.82</ele>
        <time>2017-05-16T14:07:43Z</time>
      </trkpt>
      <trkpt lat="43.5847" lon="6.16636">
        <ele>380.34</ele>
        <time>2017-05-16T14:07:55Z</time>
      </trkpt>
      <trkpt lat="43.58477" lon="6.16641">
        <ele>380.34</ele>
        <time>2017-05-16T14:08:00Z</time>
      </trkpt>
      <trkpt lat="43.5848" lon="6.16649">
        <ele>379.86</ele>
        <time>2017-05-16T14:08:11Z</time>
      </trkpt>
      <trkpt lat="43.58483" lon="6.16654">
        <ele>379.38</ele>
        <time>2017-05-16T14:08:20Z</time>
      </trkpt>
      <trkpt lat="43.58482" lon="6.16657">
        <ele>379.86</ele>
        <time>2017-05-16T14:08:31Z</time>
      </trkpt>
      <trkpt lat="43.58483" lon="6.1666">
        <ele>380.34</ele>
        <time>2017-05-16T14:08:44Z</time>
      </trkpt>
      <trkpt lat="43.58485" lon="6.1667">
        <ele>380.82</ele>
        <time>2017-05-16T14:08:57Z</time>
      </trkpt>
      <trkpt lat="43.58484" lon="6.16674">
        <ele>380.82</ele>
        <time>2017-05-16T14:09:01Z</time>
      </trkpt>
      <trkpt lat="43.58478" lon="6.16679">
        <ele>380.82</ele>
        <time>2017-05-16T14:09:05Z</time>
      </trkpt>
      <trkpt lat="43.58457" lon="6.1669">
        <ele>380.34</ele>
        <time>2017-05-16T14:09:17Z</time>
      </trkpt>
      <trkpt lat="43.58456" lon="6.1669">
        <ele>380.34</ele>
        <time>2017-05-16T14:09:18Z</time>
      </trkpt>
      <trkpt lat="43.5845" lon="6.16699">
        <ele>380.82</ele>
        <time>2017-05-16T14:09:30Z</time>
      </trkpt>
      <trkpt lat="43.58446" lon="6.1671">
        <ele>380.34</ele>
        <time>2017-05-16T14:09:41Z</time>
      </trkpt>
      <trkpt lat="43.58469" lon="6.16724">
        <ele>380.34</ele>
        <time>2017-05-16T14:09:53Z</time>
      </trkpt>
      <trkpt lat="43.58468" lon="6.16727">
        <ele>380.34</ele>
        <time>2017-05-16T14:10:08Z</time>
      </trkpt>
      <trkpt lat="43.58467" lon="6.16731">
        <ele>379.86</ele>
        <time>2017-05-16T14:10:18Z</time>
      </trkpt>
      <trkpt lat="43.58467" lon="6.16733">
        <ele>379.86</ele>
        <time>2017-05-16T14:10:20Z</time>
      </trkpt>
      <trkpt lat="43.58449" lon="6.16736">
        <ele>380.34</ele>
        <time>2017-05-16T14:10:29Z</time>
      </trkpt>
      <trkpt lat="43.58443" lon="6.16745">
        <ele>380.34</ele>
        <time>2017-05-16T14:10:39Z</time>
      </trkpt>
      <trkpt lat="43.58443" lon="6.16748">
        <ele>380.34</ele>
        <time>2017-05-16T14:10:43Z</time>
      </trkpt>
      <trkpt lat="43.58464" lon="6.1677">
        <ele>380.34</ele>
        <time>2017-05-16T14:10:56Z</time>
      </trkpt>
      <trkpt lat="43.58465" lon="6.16779">
        <ele>380.34</ele>
        <time>2017-05-16T14:11:06Z</time>
      </trkpt>
      <trkpt lat="43.58466" lon="6.16789">
        <ele>380.34</ele>
        <time>2017-05-16T14:11:18Z</time>
      </trkpt>
      <trkpt lat="43.58459" lon="6.16799">
        <ele>380.82</ele>
        <time>2017-05-16T14:11:32Z</time>
      </trkpt>
      <trkpt lat="43.58448" lon="6.16809">
        <ele>380.34</ele>
        <time>2017-05-16T14:11:42Z</time>
      </trkpt>
      <trkpt lat="43.5844" lon="6.16819">
        <ele>380.34</ele>
        <time>2017-05-16T14:11:54Z</time>
      </trkpt>
      <trkpt lat="43.58433" lon="6.16831">
        <ele>379.86</ele>
        <time>2017-05-16T14:12:07Z</time>
      </trkpt>
      <trkpt lat="43.58427" lon="6.16842">
        <ele>379.86</ele>
        <time>2017-05-16T14:12:19Z</time>
      </trkpt>
      <trkpt lat="43.58424" lon="6.16844">
        <ele>379.86</ele>
        <time>2017-05-16T14:12:23Z</time>
      </trkpt>
      <trkpt lat="43.58414" lon="6.16853">
        <ele>380.34</ele>
        <time>2017-05-16T14:12:36Z</time>
      </trkpt>
      <trkpt lat="43.58411" lon="6.1686">
        <ele>380.34</ele>
        <time>2017-05-16T14:12:50Z</time>
      </trkpt>
      <trkpt lat="43.584" lon="6.16867">
        <ele>381.3</ele>
        <time>2017-05-16T14:13:01Z</time>
      </trkpt>
      <trkpt lat="43.58397" lon="6.16869">
        <ele>382.74</ele>
        <time>2017-05-16T14:13:12Z</time>
      </trkpt>
      <trkpt lat="43.5839" lon="6.16882">
        <ele>383.7</ele>
        <time>2017-05-16T14:13:25Z</time>
      </trkpt>
      <trkpt lat="43.58384" lon="6.16891">
        <ele>382.26</ele>
        <time>2017-05-16T14:13:35Z</time>
      </trkpt>
      <trkpt lat="43.58384" lon="6.16892">
        <ele>381.78</ele>
        <time>2017-05-16T14:13:36Z</time>
      </trkpt>
      <trkpt lat="43.58381" lon="6.16893">
        <ele>381.78</ele>
        <time>2017-05-16T14:13:38Z</time>
      </trkpt>
      <trkpt lat="43.58376" lon="6.16903">
        <ele>381.3</ele>
        <time>2017-05-16T14:13:49Z</time>
      </trkpt>
      <trkpt lat="43.58371" lon="6.16912">
        <ele>381.78</ele>
        <time>2017-05-16T14:14:00Z</time>
      </trkpt>
      <trkpt lat="43.58369" lon="6.16923">
        <ele>381.3</ele>
        <time>2017-05-16T14:14:11Z</time>
      </trkpt>
      <trkpt lat="43.58368" lon="6.1694">
        <ele>381.3</ele>
        <time>2017-05-16T14:14:25Z</time>
      </trkpt>
      <trkpt lat="43.58368" lon="6.16954">
        <ele>380.82</ele>
        <time>2017-05-16T14:14:37Z</time>
      </trkpt>
      <trkpt lat="43.58365" lon="6.16967">
        <ele>380.82</ele>
        <time>2017-05-16T14:14:50Z</time>
      </trkpt>
      <trkpt lat="43.58361" lon="6.16979">
        <ele>380.82</ele>
        <time>2017-05-16T14:15:01Z</time>
      </trkpt>
      <trkpt lat="43.58369" lon="6.16994">
        <ele>380.34</ele>
        <time>2017-05-16T14:15:13Z</time>
      </trkpt>
      <trkpt lat="43.58364" lon="6.17005">
        <ele>380.34</ele>
        <time>2017-05-16T14:15:27Z</time>
      </trkpt>
      <trkpt lat="43.58368" lon="6.17015">
        <ele>380.34</ele>
        <time>2017-05-16T14:15:39Z</time>
      </trkpt>
      <trkpt lat="43.58369" lon="6.17018">
        <ele>380.82</ele>
        <time>2017-05-16T14:15:55Z</time>
      </trkpt>
      <trkpt lat="43.58367" lon="6.17019">
        <ele>380.82</ele>
        <time>2017-05-16T14:16:11Z</time>
      </trkpt>
      <trkpt lat="43.58365" lon="6.17021">
        <ele>380.82</ele>
        <time>2017-05-16T14:16:25Z</time>
      </trkpt>
      <trkpt lat="43.58364" lon="6.17021">
        <ele>380.82</ele>
        <time>2017-05-16T14:16:43Z</time>
      </trkpt>
      <trkpt lat="43.58362" lon="6.17027">
        <ele>380.82</ele>
        <time>2017-05-16T14:16:56Z</time>
      </trkpt>
      <trkpt lat="43.58359" lon="6.17033">
        <ele>380.34</ele>
        <time>2017-05-16T14:17:08Z</time>
      </trkpt>
      <trkpt lat="43.58359" lon="6.17048">
        <ele>380.34</ele>
        <time>2017-05-16T14:17:19Z</time>
      </trkpt>
      <trkpt lat="43.5836" lon="6.17051">
        <ele>380.34</ele>
        <time>2017-05-16T14:17:32Z</time>
      </trkpt>
      <trkpt lat="43.58361" lon="6.17057">
        <ele>380.34</ele>
        <time>2017-05-16T14:17:41Z</time>
      </trkpt>
      <trkpt lat="43.58351" lon="6.17065">
        <ele>379.86</ele>
        <time>2017-05-16T14:17:52Z</time>
      </trkpt>
      <trkpt lat="43.58349" lon="6.17068">
        <ele>380.34</ele>
        <time>2017-05-16T14:17:55Z</time>
      </trkpt>
      <trkpt lat="43.58346" lon="6.17078">
        <ele>379.86</ele>
        <time>2017-05-16T14:18:07Z</time>
      </trkpt>
      <trkpt lat="43.58351" lon="6.17082">
        <ele>380.82</ele>
        <time>2017-05-16T14:18:17Z</time>
      </trkpt>
      <trkpt lat="43.58344" lon="6.17088">
        <ele>380.34</ele>
        <time>2017-05-16T14:18:29Z</time>
      </trkpt>
      <trkpt lat="43.58332" lon="6.17093">
        <ele>380.82</ele>
        <time>2017-05-16T14:18:36Z</time>
      </trkpt>
      <trkpt lat="43.58324" lon="6.17102">
        <ele>380.34</ele>
        <time>2017-05-16T14:18:47Z</time>
      </trkpt>
      <trkpt lat="43.5832" lon="6.17106">
        <ele>380.34</ele>
        <time>2017-05-16T14:18:57Z</time>
      </trkpt>
      <trkpt lat="43.58316" lon="6.17112">
        <ele>380.34</ele>
        <time>2017-05-16T14:19:09Z</time>
      </trkpt>
      <trkpt lat="43.58313" lon="6.17117">
        <ele>380.34</ele>
        <time>2017-05-16T14:19:20Z</time>
      </trkpt>
      <trkpt lat="43.58309" lon="6.17124">
        <ele>380.34</ele>
        <time>2017-05-16T14:19:30Z</time>
      </trkpt>
      <trkpt lat="43.58305" lon="6.1713">
        <ele>380.34</ele>
        <time>2017-05-16T14:19:38Z</time>
      </trkpt>
      <trkpt lat="43.58301" lon="6.1714">
        <ele>380.34</ele>
        <time>2017-05-16T14:19:47Z</time>
      </trkpt>
      <trkpt lat="43.58292" lon="6.17148">
        <ele>380.34</ele>
        <time>2017-05-16T14:19:54Z</time>
      </trkpt>
      <trkpt lat="43.58301" lon="6.17155">
        <ele>380.34</ele>
        <time>2017-05-16T14:20:06Z</time>
      </trkpt>
      <trkpt lat="43.58301" lon="6.17155">
        <ele>380.34</ele>
        <time>2017-05-16T14:20:13Z</time>
      </trkpt>
      <trkpt lat="43.58305" lon="6.17163">
        <ele>379.86</ele>
        <time>2017-05-16T14:20:24Z</time>
      </trkpt>
      <trkpt lat="43.58304" lon="6.1717">
        <ele>380.34</ele>
        <time>2017-05-16T14:20:39Z</time>
      </trkpt>
      <trkpt lat="43.58306" lon="6.17173">
        <ele>380.34</ele>
        <time>2017-05-16T14:20:50Z</time>
      </trkpt>
      <trkpt lat="43.58303" lon="6.17179">
        <ele>380.34</ele>
        <time>2017-05-16T14:21:00Z</time>
      </trkpt>
      <trkpt lat="43.58287" lon="6.17184">
        <ele>380.34</ele>
        <time>2017-05-16T14:21:14Z</time>
      </trkpt>
      <trkpt lat="43.58282" lon="6.17188">
        <ele>380.82</ele>
        <time>2017-05-16T14:21:32Z</time>
      </trkpt>
      <trkpt lat="43.58273" lon="6.17192">
        <ele>380.82</ele>
        <time>2017-05-16T14:21:47Z</time>
      </trkpt>
      <trkpt lat="43.58267" lon="6.17197">
        <ele>380.34</ele>
        <time>2017-05-16T14:22:01Z</time>
      </trkpt>
      <trkpt lat="43.58265" lon="6.17197">
        <ele>380.82</ele>
        <time>2017-05-16T14:22:12Z</time>
      </trkpt>
      <trkpt lat="43.58254" lon="6.17199">
        <ele>380.34</ele>
        <time>2017-05-16T14:22:27Z</time>
      </trkpt>
      <trkpt lat="43.58245" lon="6.17202">
        <ele>380.34</ele>
        <time>2017-05-16T14:22:38Z</time>
      </trkpt>
      <trkpt lat="43.58241" lon="6.17203">
        <ele>379.86</ele>
        <time>2017-05-16T14:22:43Z</time>
      </trkpt>
      <trkpt lat="43.58229" lon="6.17204">
        <ele>380.34</ele>
        <time>2017-05-16T14:22:54Z</time>
      </trkpt>
      <trkpt lat="43.58226" lon="6.17211">
        <ele>380.34</ele>
        <time>2017-05-16T14:23:10Z</time>
      </trkpt>
      <trkpt lat="43.58226" lon="6.17213">
        <ele>380.82</ele>
        <time>2017-05-16T14:23:23Z</time>
      </trkpt>
      <trkpt lat="43.58221" lon="6.17212">
        <ele>380.82</ele>
        <time>2017-05-16T14:23:35Z</time>
      </trkpt>
      <trkpt lat="43.58219" lon="6.17213">
        <ele>380.34</ele>
        <time>2017-05-16T14:23:52Z</time>
      </trkpt>
      <trkpt lat="43.58217" lon="6.17213">
        <ele>380.34</ele>
        <time>2017-05-16T14:24:06Z</time>
      </trkpt>
      <trkpt lat="43.58217" lon="6.17214">
        <ele>380.34</ele>
        <time>2017-05-16T14:24:19Z</time>
      </trkpt>
      <trkpt lat="43.58215" lon="6.17216">
        <ele>380.34</ele>
        <time>2017-05-16T14:24:34Z</time>
      </trkpt>
      <trkpt lat="43.58214" lon="6.17221">
        <ele>380.34</ele>
        <time>2017-05-16T14:24:47Z</time>
      </trkpt>
      <trkpt lat="43.58212" lon="6.17223">
        <ele>380.34</ele>
        <time>2017-05-16T14:25:07Z</time>
      </trkpt>
      <trkpt lat="43.5821" lon="6.1722">
        <ele>380.34</ele>
        <time>2017-05-16T14:25:18Z</time>
      </trkpt>
      <trkpt lat="43.58208" lon="6.17219">
        <ele>380.34</ele>
        <time>2017-05-16T14:25:32Z</time>
      </trkpt>
      <trkpt lat="43.58204" lon="6.17218">
        <ele>380.34</ele>
        <time>2017-05-16T14:25:47Z</time>
      </trkpt>
      <trkpt lat="43.58192" lon="6.17216">
        <ele>380.82</ele>
        <time>2017-05-16T14:25:58Z</time>
      </trkpt>
      <trkpt lat="43.58181" lon="6.17215">
        <ele>380.82</ele>
        <time>2017-05-16T14:26:07Z</time>
      </trkpt>
      <trkpt lat="43.58172" lon="6.17215">
        <ele>380.82</ele>
        <time>2017-05-16T14:26:18Z</time>
      </trkpt>
      <trkpt lat="43.58168" lon="6.17221">
        <ele>380.34</ele>
        <time>2017-05-16T14:26:29Z</time>
      </trkpt>
      <trkpt lat="43.58165" lon="6.17222">
        <ele>380.82</ele>
        <time>2017-05-16T14:26:41Z</time>
      </trkpt>
      <trkpt lat="43.58156" lon="6.17231">
        <ele>380.82</ele>
        <time>2017-05-16T14:26:55Z</time>
      </trkpt>
      <trkpt lat="43.58152" lon="6.17237">
        <ele>380.82</ele>
        <time>2017-05-16T14:27:06Z</time>
      </trkpt>
      <trkpt lat="43.58145" lon="6.17247">
        <ele>380.82</ele>
        <time>2017-05-16T14:27:15Z</time>
      </trkpt>
      <trkpt lat="43.58138" lon="6.17253">
        <ele>380.34</ele>
        <time>2017-05-16T14:27:24Z</time>
      </trkpt>
      <trkpt lat="43.58138" lon="6.17258">
        <ele>381.3</ele>
        <time>2017-05-16T14:27:35Z</time>
      </trkpt>
      <trkpt lat="43.58134" lon="6.17263">
        <ele>380.82</ele>
        <time>2017-05-16T14:27:46Z</time>
      </trkpt>
      <trkpt lat="43.58133" lon="6.17264">
        <ele>380.82</ele>
        <time>2017-05-16T14:27:58Z</time>
      </trkpt>
      <trkpt lat="43.58128" lon="6.17264">
        <ele>380.82</ele>
        <time>2017-05-16T14:28:14Z</time>
      </trkpt>
      <trkpt lat="43.58122" lon="6.17266">
        <ele>380.82</ele>
        <time>2017-05-16T14:28:30Z</time>
      </trkpt>
      <trkpt lat="43.58114" lon="6.17269">
        <ele>380.34</ele>
        <time>2017-05-16T14:28:41Z</time>
      </trkpt>
      <trkpt lat="43.58112" lon="6.17269">
        <ele>380.82</ele>
        <time>2017-05-16T14:28:56Z</time>
      </trkpt>
      <trkpt lat="43.5811" lon="6.17271">
        <ele>380.82</ele>
        <time>2017-05-16T14:29:13Z</time>
      </trkpt>
      <trkpt lat="43.58107" lon="6.17269">
        <ele>380.82</ele>
        <time>2017-05-16T14:29:35Z</time>
      </trkpt>
      <trkpt lat="43.58106" lon="6.17269">
        <ele>380.82</ele>
        <time>2017-05-16T14:29:56Z</time>
      </trkpt>
      <trkpt lat="43.58104" lon="6.17269">
        <ele>381.78</ele>
        <time>2017-05-16T14:30:17Z</time>
      </trkpt>
      <trkpt lat="43.58098" lon="6.17273">
        <ele>381.3</ele>
        <time>2017-05-16T14:30:36Z</time>
      </trkpt>
      <trkpt lat="43.58098" lon="6.17273">
        <ele>381.3</ele>
        <time>2017-05-16T14:31:04Z</time>
      </trkpt>
      <trkpt lat="43.581" lon="6.17273">
        <ele>381.78</ele>
        <time>2017-05-16T14:31:20Z</time>
      </trkpt>
      <trkpt lat="43.58099" lon="6.17274">
        <ele>381.78</ele>
        <time>2017-05-16T14:31:30Z</time>
      </trkpt>
      <trkpt lat="43.58097" lon="6.17277">
        <ele>382.26</ele>
        <time>2017-05-16T14:31:37Z</time>
      </trkpt>
      <trkpt lat="43.58086" lon="6.17285">
        <ele>381.78</ele>
        <time>2017-05-16T14:31:49Z</time>
      </trkpt>
      <trkpt lat="43.58084" lon="6.17296">
        <ele>381.78</ele>
        <time>2017-05-16T14:32:01Z</time>
      </trkpt>
      <trkpt lat="43.58085" lon="6.17309">
        <ele>381.3</ele>
        <time>2017-05-16T14:32:12Z</time>
      </trkpt>
      <trkpt lat="43.58084" lon="6.17312">
        <ele>381.78</ele>
        <time>2017-05-16T14:32:22Z</time>
      </trkpt>
      <trkpt lat="43.58079" lon="6.17319">
        <ele>381.78</ele>
        <time>2017-05-16T14:32:28Z</time>
      </trkpt>
      <trkpt lat="43.58073" lon="6.17324">
        <ele>381.78</ele>
        <time>2017-05-16T14:32:38Z</time>
      </trkpt>
      <trkpt lat="43.58072" lon="6.17326">
        <ele>381.78</ele>
        <time>2017-05-16T14:32:40Z</time>
      </trkpt>
      <trkpt lat="43.58068" lon="6.17337">
        <ele>381.78</ele>
        <time>2017-05-16T14:32:50Z</time>
      </trkpt>
      <trkpt lat="43.58067" lon="6.17349">
        <ele>381.3</ele>
        <time>2017-05-16T14:32:59Z</time>
      </trkpt>
      <trkpt lat="43.58066" lon="6.17352">
        <ele>381.3</ele>
        <time>2017-05-16T14:33:01Z</time>
      </trkpt>
      <trkpt lat="43.58063" lon="6.1736">
        <ele>381.3</ele>
        <time>2017-05-16T14:33:08Z</time>
      </trkpt>
      <trkpt lat="43.5806" lon="6.17371">
        <ele>381.3</ele>
        <time>2017-05-16T14:33:19Z</time>
      </trkpt>
      <trkpt lat="43.58056" lon="6.17384">
        <ele>381.3</ele>
        <time>2017-05-16T14:33:29Z</time>
      </trkpt>
      <trkpt lat="43.58053" lon="6.174">
        <ele>381.3</ele>
        <time>2017-05-16T14:33:40Z</time>
      </trkpt>
      <trkpt lat="43.58055" lon="6.17408">
        <ele>381.3</ele>
        <time>2017-05-16T14:33:50Z</time>
      </trkpt>
      <trkpt lat="43.58043" lon="6.17416">
        <ele>381.3</ele>
        <time>2017-05-16T14:34:01Z</time>
      </trkpt>
      <trkpt lat="43.58032" lon="6.17428">
        <ele>381.3</ele>
        <time>2017-05-16T14:34:12Z</time>
      </trkpt>
      <trkpt lat="43.5803" lon="6.1744">
        <ele>380.82</ele>
        <time>2017-05-16T14:34:23Z</time>
      </trkpt>
      <trkpt lat="43.5802" lon="6.17448">
        <ele>381.3</ele>
        <time>2017-05-16T14:34:32Z</time>
      </trkpt>
      <trkpt lat="43.58011" lon="6.17457">
        <ele>380.82</ele>
        <time>2017-05-16T14:34:44Z</time>
      </trkpt>
      <trkpt lat="43.58004" lon="6.1747">
        <ele>381.3</ele>
        <time>2017-05-16T14:34:56Z</time>
      </trkpt>
      <trkpt lat="43.58002" lon="6.17472">
        <ele>381.78</ele>
        <time>2017-05-16T14:35:07Z</time>
      </trkpt>
      <trkpt lat="43.57999" lon="6.17479">
        <ele>383.22</ele>
        <time>2017-05-16T14:35:17Z</time>
      </trkpt>
      <trkpt lat="43.57998" lon="6.17481">
        <ele>381.78</ele>
        <time>2017-05-16T14:35:27Z</time>
      </trkpt>
      <trkpt lat="43.57997" lon="6.17483">
        <ele>381.3</ele>
        <time>2017-05-16T14:35:40Z</time>
      </trkpt>
      <trkpt lat="43.57997" lon="6.17484">
        <ele>381.3</ele>
        <time>2017-05-16T14:35:41Z</time>
      </trkpt>
      <trkpt lat="43.57995" lon="6.1749">
        <ele>380.82</ele>
        <time>2017-05-16T14:35:50Z</time>
      </trkpt>
      <trkpt lat="43.57996" lon="6.17492">
        <ele>380.82</ele>
        <time>2017-05-16T14:36:11Z</time>
      </trkpt>
      <trkpt lat="43.57995" lon="6.17492">
        <ele>380.82</ele>
        <time>2017-05-16T14:36:40Z</time>
      </trkpt>
      <trkpt lat="43.57996" lon="6.17494">
        <ele>380.82</ele>
        <time>2017-05-16T14:37:04Z</time>
      </trkpt>
      <trkpt lat="43.57996" lon="6.17494">
        <ele>381.78</ele>
        <time>2017-05-16T14:37:10Z</time>
      </trkpt>
      <trkpt lat="43.57995" lon="6.17495">
        <ele>380.82</ele>
        <time>2017-05-16T14:37:12Z</time>
      </trkpt>
      <trkpt lat="43.57992" lon="6.17503">
        <ele>380.34</ele>
        <time>2017-05-16T14:37:18Z</time>
      </trkpt>
      <trkpt lat="43.57985" lon="6.1751">
        <ele>379.86</ele>
        <time>2017-05-16T14:37:26Z</time>
      </trkpt>
      <trkpt lat="43.57975" lon="6.17515">
        <ele>379.86</ele>
        <time>2017-05-16T14:37:37Z</time>
      </trkpt>
      <trkpt lat="43.57971" lon="6.17522">
        <ele>379.38</ele>
        <time>2017-05-16T14:37:48Z</time>
      </trkpt>
      <trkpt lat="43.57969" lon="6.17525">
        <ele>378.9</ele>
        <time>2017-05-16T14:37:52Z</time>
      </trkpt>
      <trkpt lat="43.57969" lon="6.17528">
        <ele>378.9</ele>
        <time>2017-05-16T14:37:54Z</time>
      </trkpt>
      <trkpt lat="43.57959" lon="6.17532">
        <ele>378.9</ele>
        <time>2017-05-16T14:38:05Z</time>
      </trkpt>
      <trkpt lat="43.57953" lon="6.17532">
        <ele>378.42</ele>
        <time>2017-05-16T14:38:11Z</time>
      </trkpt>
      <trkpt lat="43.57942" lon="6.17537">
        <ele>378.42</ele>
        <time>2017-05-16T14:38:23Z</time>
      </trkpt>
      <trkpt lat="43.57936" lon="6.17537">
        <ele>377.94</ele>
        <time>2017-05-16T14:38:29Z</time>
      </trkpt>
      <trkpt lat="43.57927" lon="6.17535">
        <ele>378.42</ele>
        <time>2017-05-16T14:38:41Z</time>
      </trkpt>
      <trkpt lat="43.57928" lon="6.17541">
        <ele>377.94</ele>
        <time>2017-05-16T14:39:00Z</time>
      </trkpt>
      <trkpt lat="43.57928" lon="6.1754">
        <ele>378.42</ele>
        <time>2017-05-16T14:39:09Z</time>
      </trkpt>
      <trkpt lat="43.57927" lon="6.17542">
        <ele>378.42</ele>
        <time>2017-05-16T14:39:28Z</time>
      </trkpt>
      <trkpt lat="43.57923" lon="6.1754">
        <ele>378.42</ele>
        <time>2017-05-16T14:39:39Z</time>
      </trkpt>
      <trkpt lat="43.57921" lon="6.1754">
        <ele>378.42</ele>
        <time>2017-05-16T14:39:41Z</time>
      </trkpt>
      <trkpt lat="43.57913" lon="6.1753">
        <ele>377.94</ele>
        <time>2017-05-16T14:39:52Z</time>
      </trkpt>
      <trkpt lat="43.57904" lon="6.17527">
        <ele>377.94</ele>
        <time>2017-05-16T14:40:02Z</time>
      </trkpt>
      <trkpt lat="43.57895" lon="6.17523">
        <ele>377.94</ele>
        <time>2017-05-16T14:40:14Z</time>
      </trkpt>
      <trkpt lat="43.57889" lon="6.17525">
        <ele>377.45</ele>
        <time>2017-05-16T14:40:24Z</time>
      </trkpt>
      <trkpt lat="43.57888" lon="6.17524">
        <ele>377.45</ele>
        <time>2017-05-16T14:40:31Z</time>
      </trkpt>
      <trkpt lat="43.57893" lon="6.17521">
        <ele>378.9</ele>
        <time>2017-05-16T14:40:41Z</time>
      </trkpt>
      <trkpt lat="43.57895" lon="6.17517">
        <ele>380.82</ele>
        <time>2017-05-16T14:40:49Z</time>
      </trkpt>
      <trkpt lat="43.57885" lon="6.17515">
        <ele>380.34</ele>
        <time>2017-05-16T14:41:00Z</time>
      </trkpt>
      <trkpt lat="43.57881" lon="6.1752">
        <ele>380.34</ele>
        <time>2017-05-16T14:41:14Z</time>
      </trkpt>
      <trkpt lat="43.5788" lon="6.17518">
        <ele>380.82</ele>
        <time>2017-05-16T14:41:30Z</time>
      </trkpt>
      <trkpt lat="43.57875" lon="6.17512">
        <ele>380.34</ele>
        <time>2017-05-16T14:41:40Z</time>
      </trkpt>
      <trkpt lat="43.57876" lon="6.17514">
        <ele>380.34</ele>
        <time>2017-05-16T14:41:51Z</time>
      </trkpt>
      <trkpt lat="43.57874" lon="6.17513">
        <ele>380.34</ele>
        <time>2017-05-16T14:42:08Z</time>
      </trkpt>
      <trkpt lat="43.57873" lon="6.17512">
        <ele>380.34</ele>
        <time>2017-05-16T14:42:18Z</time>
      </trkpt>
      <trkpt lat="43.57866" lon="6.17506">
        <ele>380.34</ele>
        <time>2017-05-16T14:42:30Z</time>
      </trkpt>
      <trkpt lat="43.57855" lon="6.17502">
        <ele>380.34</ele>
        <time>2017-05-16T14:42:45Z</time>
      </trkpt>
      <trkpt lat="43.57841" lon="6.17502">
        <ele>378.42</ele>
        <time>2017-05-16T14:42:59Z</time>
      </trkpt>
      <trkpt lat="43.57832" lon="6.17501">
        <ele>380.34</ele>
        <time>2017-05-16T14:43:10Z</time>
      </trkpt>
      <trkpt lat="43.57824" lon="6.17501">
        <ele>379.86</ele>
        <time>2017-05-16T14:43:21Z</time>
      </trkpt>
      <trkpt lat="43.57818" lon="6.175">
        <ele>379.86</ele>
        <time>2017-05-16T14:43:29Z</time>
      </trkpt>
      <trkpt lat="43.57807" lon="6.17498">
        <ele>379.38</ele>
        <time>2017-05-16T14:43:41Z</time>
      </trkpt>
      <trkpt lat="43.57798" lon="6.17499">
        <ele>379.38</ele>
        <time>2017-05-16T14:43:51Z</time>
      </trkpt>
      <trkpt lat="43.57795" lon="6.17499">
        <ele>378.9</ele>
        <time>2017-05-16T14:43:54Z</time>
      </trkpt>
      <trkpt lat="43.57788" lon="6.17499">
        <ele>378.9</ele>
        <time>2017-05-16T14:44:03Z</time>
      </trkpt>
      <trkpt lat="43.5778" lon="6.17499">
        <ele>378.9</ele>
        <time>2017-05-16T14:44:12Z</time>
      </trkpt>
      <trkpt lat="43.57767" lon="6.17496">
        <ele>378.9</ele>
        <time>2017-05-16T14:44:24Z</time>
      </trkpt>
      <trkpt lat="43.57757" lon="6.17497">
        <ele>378.9</ele>
        <time>2017-05-16T14:44:34Z</time>
      </trkpt>
      <trkpt lat="43.57752" lon="6.17496">
        <ele>378.9</ele>
        <time>2017-05-16T14:44:41Z</time>
      </trkpt>
      <trkpt lat="43.57744" lon="6.17495">
        <ele>378.9</ele>
        <time>2017-05-16T14:44:50Z</time>
      </trkpt>
      <trkpt lat="43.57743" lon="6.17494">
        <ele>378.42</ele>
        <time>2017-05-16T14:44:52Z</time>
      </trkpt>
      <trkpt lat="43.57726" lon="6.17491">
        <ele>378.9</ele>
        <time>2017-05-16T14:45:06Z</time>
      </trkpt>
      <trkpt lat="43.57715" lon="6.17487">
        <ele>378.42</ele>
        <time>2017-05-16T14:45:16Z</time>
      </trkpt>
      <trkpt lat="43.57707" lon="6.1749">
        <ele>378.42</ele>
        <time>2017-05-16T14:45:26Z</time>
      </trkpt>
      <trkpt lat="43.577" lon="6.17495">
        <ele>378.9</ele>
        <time>2017-05-16T14:45:36Z</time>
      </trkpt>
      <trkpt lat="43.57693" lon="6.17497">
        <ele>378.9</ele>
        <time>2017-05-16T14:45:45Z</time>
      </trkpt>
      <trkpt lat="43.57684" lon="6.17498">
        <ele>378.9</ele>
        <time>2017-05-16T14:45:55Z</time>
      </trkpt>
      <trkpt lat="43.57679" lon="6.17498">
        <ele>378.9</ele>
        <time>2017-05-16T14:46:00Z</time>
      </trkpt>
      <trkpt lat="43.57675" lon="6.17498">
        <ele>379.38</ele>
        <time>2017-05-16T14:46:03Z</time>
      </trkpt>
      <trkpt lat="43.57667" lon="6.17495">
        <ele>379.38</ele>
        <time>2017-05-16T14:46:11Z</time>
      </trkpt>
      <trkpt lat="43.57658" lon="6.17485">
        <ele>380.34</ele>
        <time>2017-05-16T14:46:23Z</time>
      </trkpt>
      <trkpt lat="43.57649" lon="6.17473">
        <ele>381.78</ele>
        <time>2017-05-16T14:46:36Z</time>
      </trkpt>
      <trkpt lat="43.57648" lon="6.17466">
        <ele>382.74</ele>
        <time>2017-05-16T14:46:43Z</time>
      </trkpt>
      <trkpt lat="43.57648" lon="6.17458">
        <ele>383.7</ele>
        <time>2017-05-16T14:46:50Z</time>
      </trkpt>
      <trkpt lat="43.57645" lon="6.17442">
        <ele>385.63</ele>
        <time>2017-05-16T14:47:04Z</time>
      </trkpt>
      <trkpt lat="43.57645" lon="6.1744">
        <ele>385.63</ele>
        <time>2017-05-16T14:47:06Z</time>
      </trkpt>
      <trkpt lat="43.57645" lon="6.17438">
        <ele>386.11</ele>
        <time>2017-05-16T14:47:08Z</time>
      </trkpt>
      <trkpt lat="43.57644" lon="6.17428">
        <ele>387.55</ele>
        <time>2017-05-16T14:47:19Z</time>
      </trkpt>
      <trkpt lat="43.5763" lon="6.17422">
        <ele>388.03</ele>
        <time>2017-05-16T14:47:32Z</time>
      </trkpt>
      <trkpt lat="43.57624" lon="6.17418">
        <ele>388.03</ele>
        <time>2017-05-16T14:47:42Z</time>
      </trkpt>
      <trkpt lat="43.57617" lon="6.17415">
        <ele>388.03</ele>
        <time>2017-05-16T14:47:53Z</time>
      </trkpt>
      <trkpt lat="43.57616" lon="6.17415">
        <ele>388.03</ele>
        <time>2017-05-16T14:47:55Z</time>
      </trkpt>
      <trkpt lat="43.57607" lon="6.17412">
        <ele>388.03</ele>
        <time>2017-05-16T14:48:05Z</time>
      </trkpt>
      <trkpt lat="43.57605" lon="6.17412">
        <ele>388.03</ele>
        <time>2017-05-16T14:48:07Z</time>
      </trkpt>
      <trkpt lat="43.57594" lon="6.17409">
        <ele>386.11</ele>
        <time>2017-05-16T14:48:16Z</time>
      </trkpt>
      <trkpt lat="43.57586" lon="6.17405">
        <ele>387.55</ele>
        <time>2017-05-16T14:48:27Z</time>
      </trkpt>
      <trkpt lat="43.5758" lon="6.17403">
        <ele>387.55</ele>
        <time>2017-05-16T14:48:34Z</time>
      </trkpt>
      <trkpt lat="43.57569" lon="6.17402">
        <ele>387.55</ele>
        <time>2017-05-16T14:48:45Z</time>
      </trkpt>
      <trkpt lat="43.57555" lon="6.17391">
        <ele>386.59</ele>
        <time>2017-05-16T14:48:58Z</time>
      </trkpt>
      <trkpt lat="43.57552" lon="6.17386">
        <ele>387.07</ele>
        <time>2017-05-16T14:49:03Z</time>
      </trkpt>
      <trkpt lat="43.57548" lon="6.17382">
        <ele>386.59</ele>
        <time>2017-05-16T14:49:07Z</time>
      </trkpt>
      <trkpt lat="43.57541" lon="6.17377">
        <ele>386.59</ele>
        <time>2017-05-16T14:49:14Z</time>
      </trkpt>
      <trkpt lat="43.57536" lon="6.17373">
        <ele>387.07</ele>
        <time>2017-05-16T14:49:19Z</time>
      </trkpt>
      <trkpt lat="43.57526" lon="6.17367">
        <ele>387.07</ele>
        <time>2017-05-16T14:49:30Z</time>
      </trkpt>
      <trkpt lat="43.57517" lon="6.17362">
        <ele>385.63</ele>
        <time>2017-05-16T14:49:40Z</time>
      </trkpt>
      <trkpt lat="43.57503" lon="6.17358">
        <ele>384.18</ele>
        <time>2017-05-16T14:49:51Z</time>
      </trkpt>
      <trkpt lat="43.57496" lon="6.17354">
        <ele>383.22</ele>
        <time>2017-05-16T14:49:59Z</time>
      </trkpt>
      <trkpt lat="43.57487" lon="6.17346">
        <ele>382.26</ele>
        <time>2017-05-16T14:50:07Z</time>
      </trkpt>
      <trkpt lat="43.57484" lon="6.17342">
        <ele>381.78</ele>
        <time>2017-05-16T14:50:12Z</time>
      </trkpt>
      <trkpt lat="43.5748" lon="6.17339">
        <ele>381.78</ele>
        <time>2017-05-16T14:50:16Z</time>
      </trkpt>
      <trkpt lat="43.57474" lon="6.17337">
        <ele>380.82</ele>
        <time>2017-05-16T14:50:25Z</time>
      </trkpt>
      <trkpt lat="43.5747" lon="6.17339">
        <ele>380.82</ele>
        <time>2017-05-16T14:50:38Z</time>
      </trkpt>
      <trkpt lat="43.57469" lon="6.17342">
        <ele>380.82</ele>
        <time>2017-05-16T14:50:54Z</time>
      </trkpt>
      <trkpt lat="43.57467" lon="6.17341">
        <ele>380.82</ele>
        <time>2017-05-16T14:51:19Z</time>
      </trkpt>
      <trkpt lat="43.57466" lon="6.17342">
        <ele>380.82</ele>
        <time>2017-05-16T14:51:41Z</time>
      </trkpt>
      <trkpt lat="43.57466" lon="6.17342">
        <ele>381.3</ele>
        <time>2017-05-16T14:52:03Z</time>
      </trkpt>
      <trkpt lat="43.57466" lon="6.17343">
        <ele>380.82</ele>
        <time>2017-05-16T14:52:22Z</time>
      </trkpt>
      <trkpt lat="43.57467" lon="6.17343">
        <ele>380.82</ele>
        <time>2017-05-16T14:52:42Z</time>
      </trkpt>
      <trkpt lat="43.57467" lon="6.17343">
        <ele>380.82</ele>
        <time>2017-05-16T14:52:59Z</time>
      </trkpt>
      <trkpt lat="43.57468" lon="6.17343">
        <ele>380.82</ele>
        <time>2017-05-16T14:53:20Z</time>
      </trkpt>
      <trkpt lat="43.57462" lon="6.17337">
        <ele>380.34</ele>
        <time>2017-05-16T14:53:31Z</time>
      </trkpt>
      <trkpt lat="43.57459" lon="6.17335">
        <ele>380.34</ele>
        <time>2017-05-16T14:53:34Z</time>
      </trkpt>
      <trkpt lat="43.57447" lon="6.17324">
        <ele>379.86</ele>
        <time>2017-05-16T14:53:45Z</time>
      </trkpt>
      <trkpt lat="43.57432" lon="6.17319">
        <ele>379.86</ele>
        <time>2017-05-16T14:53:57Z</time>
      </trkpt>
      <trkpt lat="43.57424" lon="6.17316">
        <ele>379.86</ele>
        <time>2017-05-16T14:54:05Z</time>
      </trkpt>
      <trkpt lat="43.57411" lon="6.17311">
        <ele>380.34</ele>
        <time>2017-05-16T14:54:16Z</time>
      </trkpt>
      <trkpt lat="43.57402" lon="6.1731">
        <ele>380.34</ele>
        <time>2017-05-16T14:54:26Z</time>
      </trkpt>
      <trkpt lat="43.574" lon="6.17313">
        <ele>380.34</ele>
        <time>2017-05-16T14:54:47Z</time>
      </trkpt>
      <trkpt lat="43.57398" lon="6.17313">
        <ele>380.34</ele>
        <time>2017-05-16T14:55:08Z</time>
      </trkpt>
      <trkpt lat="43.57396" lon="6.17313">
        <ele>380.34</ele>
        <time>2017-05-16T14:55:10Z</time>
      </trkpt>
      <trkpt lat="43.57392" lon="6.17313">
        <ele>380.34</ele>
        <time>2017-05-16T14:55:14Z</time>
      </trkpt>
      <trkpt lat="43.57388" lon="6.17313">
        <ele>380.34</ele>
        <time>2017-05-16T14:55:17Z</time>
      </trkpt>
      <trkpt lat="43.57379" lon="6.17315">
        <ele>380.34</ele>
        <time>2017-05-16T14:55:25Z</time>
      </trkpt>
      <trkpt lat="43.57368" lon="6.17321">
        <ele>380.82</ele>
        <time>2017-05-16T14:55:35Z</time>
      </trkpt>
      <trkpt lat="43.57368" lon="6.17321">
        <ele>380.82</ele>
        <time>2017-05-16T14:55:36Z</time>
      </trkpt>
      <trkpt lat="43.57364" lon="6.17322">
        <ele>380.82</ele>
        <time>2017-05-16T14:55:40Z</time>
      </trkpt>
      <trkpt lat="43.57357" lon="6.17322">
        <ele>380.82</ele>
        <time>2017-05-16T14:55:44Z</time>
      </trkpt>
      <trkpt lat="43.57351" lon="6.17322">
        <ele>380.82</ele>
        <time>2017-05-16T14:55:48Z</time>
      </trkpt>
      <trkpt lat="43.57338" lon="6.17327">
        <ele>380.34</ele>
        <time>2017-05-16T14:55:58Z</time>
      </trkpt>
      <trkpt lat="43.5733" lon="6.17329">
        <ele>380.82</ele>
        <time>2017-05-16T14:56:05Z</time>
      </trkpt>
      <trkpt lat="43.57326" lon="6.1733">
        <ele>380.82</ele>
        <time>2017-05-16T14:56:09Z</time>
      </trkpt>
      <trkpt lat="43.57314" lon="6.17333">
        <ele>380.82</ele>
        <time>2017-05-16T14:56:19Z</time>
      </trkpt>
      <trkpt lat="43.57312" lon="6.17333">
        <ele>381.3</ele>
        <time>2017-05-16T14:56:21Z</time>
      </trkpt>
      <trkpt lat="43.57306" lon="6.17334">
        <ele>381.78</ele>
        <time>2017-05-16T14:56:27Z</time>
      </trkpt>
      <trkpt lat="43.573" lon="6.17341">
        <ele>381.78</ele>
        <time>2017-05-16T14:56:36Z</time>
      </trkpt>
      <trkpt lat="43.57289" lon="6.1735">
        <ele>381.78</ele>
        <time>2017-05-16T14:56:45Z</time>
      </trkpt>
      <trkpt lat="43.57284" lon="6.17352">
        <ele>382.26</ele>
        <time>2017-05-16T14:56:49Z</time>
      </trkpt>
      <trkpt lat="43.57275" lon="6.17357">
        <ele>381.78</ele>
        <time>2017-05-16T14:56:58Z</time>
      </trkpt>
      <trkpt lat="43.57265" lon="6.17365">
        <ele>381.3</ele>
        <time>2017-05-16T14:57:09Z</time>
      </trkpt>
      <trkpt lat="43.57253" lon="6.1737">
        <ele>379.38</ele>
        <time>2017-05-16T14:57:20Z</time>
      </trkpt>
      <trkpt lat="43.57246" lon="6.17376">
        <ele>377.94</ele>
        <time>2017-05-16T14:57:29Z</time>
      </trkpt>
      <trkpt lat="43.57242" lon="6.17377">
        <ele>377.94</ele>
        <time>2017-05-16T14:57:32Z</time>
      </trkpt>
      <trkpt lat="43.57237" lon="6.17384">
        <ele>377.45</ele>
        <time>2017-05-16T14:57:41Z</time>
      </trkpt>
      <trkpt lat="43.57234" lon="6.17386">
        <ele>376.97</ele>
        <time>2017-05-16T14:57:45Z</time>
      </trkpt>
      <trkpt lat="43.57231" lon="6.1739">
        <ele>376.97</ele>
        <time>2017-05-16T14:57:55Z</time>
      </trkpt>
      <trkpt lat="43.57232" lon="6.17391">
        <ele>376.97</ele>
        <time>2017-05-16T14:58:12Z</time>
      </trkpt>
      <trkpt lat="43.57232" lon="6.17391">
        <ele>376.97</ele>
        <time>2017-05-16T14:58:30Z</time>
      </trkpt>
      <trkpt lat="43.57232" lon="6.17391">
        <ele>376.49</ele>
        <time>2017-05-16T14:58:48Z</time>
      </trkpt>
      <trkpt lat="43.57232" lon="6.17392">
        <ele>376.49</ele>
        <time>2017-05-16T14:59:06Z</time>
      </trkpt>
      <trkpt lat="43.57232" lon="6.17391">
        <ele>376.01</ele>
        <time>2017-05-16T14:59:19Z</time>
      </trkpt>
      <trkpt lat="43.57226" lon="6.17393">
        <ele>376.01</ele>
        <time>2017-05-16T14:59:30Z</time>
      </trkpt>
      <trkpt lat="43.57226" lon="6.17396">
        <ele>376.01</ele>
        <time>2017-05-16T14:59:49Z</time>
      </trkpt>
      <trkpt lat="43.57226" lon="6.17396">
        <ele>376.01</ele>
        <time>2017-05-16T15:00:03Z</time>
      </trkpt>
      <trkpt lat="43.57224" lon="6.17394">
        <ele>375.53</ele>
        <time>2017-05-16T15:00:14Z</time>
      </trkpt>
      <trkpt lat="43.57219" lon="6.17391">
        <ele>375.53</ele>
        <time>2017-05-16T15:00:19Z</time>
      </trkpt>
      <trkpt lat="43.57208" lon="6.17396">
        <ele>375.05</ele>
        <time>2017-05-16T15:00:30Z</time>
      </trkpt>
      <trkpt lat="43.572" lon="6.17398">
        <ele>375.05</ele>
        <time>2017-05-16T15:00:42Z</time>
      </trkpt>
      <trkpt lat="43.57199" lon="6.174">
        <ele>375.05</ele>
        <time>2017-05-16T15:00:56Z</time>
      </trkpt>
      <trkpt lat="43.57197" lon="6.17402">
        <ele>376.97</ele>
        <time>2017-05-16T15:01:06Z</time>
      </trkpt>
      <trkpt lat="43.57196" lon="6.17403">
        <ele>374.57</ele>
        <time>2017-05-16T15:01:09Z</time>
      </trkpt>
      <trkpt lat="43.5719" lon="6.17406">
        <ele>371.21</ele>
        <time>2017-05-16T15:01:15Z</time>
      </trkpt>
      <trkpt lat="43.57189" lon="6.17406">
        <ele>377.45</ele>
        <time>2017-05-16T15:01:16Z</time>
      </trkpt>
      <trkpt lat="43.57186" lon="6.17407">
        <ele>375.05</ele>
        <time>2017-05-16T15:01:19Z</time>
      </trkpt>
      <trkpt lat="43.57172" lon="6.17409">
        <ele>375.05</ele>
        <time>2017-05-16T15:01:34Z</time>
      </trkpt>
      <trkpt lat="43.57171" lon="6.17412">
        <ele>374.57</ele>
        <time>2017-05-16T15:01:44Z</time>
      </trkpt>
      <trkpt lat="43.57172" lon="6.17413">
        <ele>374.57</ele>
        <time>2017-05-16T15:01:58Z</time>
      </trkpt>
      <trkpt lat="43.57163" lon="6.17412">
        <ele>374.57</ele>
        <time>2017-05-16T15:02:09Z</time>
      </trkpt>
      <trkpt lat="43.57151" lon="6.17416">
        <ele>374.57</ele>
        <time>2017-05-16T15:02:20Z</time>
      </trkpt>
      <trkpt lat="43.57138" lon="6.17421">
        <ele>375.05</ele>
        <time>2017-05-16T15:02:33Z</time>
      </trkpt>
      <trkpt lat="43.57128" lon="6.17424">
        <ele>374.57</ele>
        <time>2017-05-16T15:02:44Z</time>
      </trkpt>
      <trkpt lat="43.5712" lon="6.17427">
        <ele>374.09</ele>
        <time>2017-05-16T15:02:53Z</time>
      </trkpt>
      <trkpt lat="43.57106" lon="6.1743">
        <ele>374.57</ele>
        <time>2017-05-16T15:03:06Z</time>
      </trkpt>
      <trkpt lat="43.57097" lon="6.17433">
        <ele>374.57</ele>
        <time>2017-05-16T15:03:16Z</time>
      </trkpt>
      <trkpt lat="43.57091" lon="6.17435">
        <ele>374.57</ele>
        <time>2017-05-16T15:03:22Z</time>
      </trkpt>
      <trkpt lat="43.57078" lon="6.17439">
        <ele>374.09</ele>
        <time>2017-05-16T15:03:35Z</time>
      </trkpt>
      <trkpt lat="43.57071" lon="6.17441">
        <ele>374.09</ele>
        <time>2017-05-16T15:03:43Z</time>
      </trkpt>
      <trkpt lat="43.57055" lon="6.17446">
        <ele>374.09</ele>
        <time>2017-05-16T15:03:57Z</time>
      </trkpt>
      <trkpt lat="43.57044" lon="6.1745">
        <ele>374.09</ele>
        <time>2017-05-16T15:04:08Z</time>
      </trkpt>
      <trkpt lat="43.57039" lon="6.17453">
        <ele>374.09</ele>
        <time>2017-05-16T15:04:14Z</time>
      </trkpt>
      <trkpt lat="43.57034" lon="6.17454">
        <ele>374.09</ele>
        <time>2017-05-16T15:04:19Z</time>
      </trkpt>
      <trkpt lat="43.57022" lon="6.17457">
        <ele>373.61</ele>
        <time>2017-05-16T15:04:31Z</time>
      </trkpt>
      <trkpt lat="43.57009" lon="6.17462">
        <ele>373.61</ele>
        <time>2017-05-16T15:04:43Z</time>
      </trkpt>
      <trkpt lat="43.56999" lon="6.17465">
        <ele>373.61</ele>
        <time>2017-05-16T15:04:53Z</time>
      </trkpt>
      <trkpt lat="43.56997" lon="6.17466">
        <ele>373.61</ele>
        <time>2017-05-16T15:04:56Z</time>
      </trkpt>
      <trkpt lat="43.56983" lon="6.17469">
        <ele>373.61</ele>
        <time>2017-05-16T15:05:09Z</time>
      </trkpt>
      <trkpt lat="43.56969" lon="6.17473">
        <ele>373.61</ele>
        <time>2017-05-16T15:05:22Z</time>
      </trkpt>
      <trkpt lat="43.56957" lon="6.17477">
        <ele>373.61</ele>
        <time>2017-05-16T15:05:34Z</time>
      </trkpt>
      <trkpt lat="43.56955" lon="6.17477">
        <ele>373.61</ele>
        <time>2017-05-16T15:05:37Z</time>
      </trkpt>
      <trkpt lat="43.56952" lon="6.17478">
        <ele>373.61</ele>
        <time>2017-05-16T15:05:39Z</time>
      </trkpt>
      <trkpt lat="43.56938" lon="6.1748">
        <ele>373.61</ele>
        <time>2017-05-16T15:05:51Z</time>
      </trkpt>
      <trkpt lat="43.56927" lon="6.17484">
        <ele>373.61</ele>
        <time>2017-05-16T15:06:03Z</time>
      </trkpt>
      <trkpt lat="43.56918" lon="6.17489">
        <ele>373.61</ele>
        <time>2017-05-16T15:06:13Z</time>
      </trkpt>
      <trkpt lat="43.56907" lon="6.17491">
        <ele>373.61</ele>
        <time>2017-05-16T15:06:24Z</time>
      </trkpt>
      <trkpt lat="43.56897" lon="6.1749">
        <ele>374.09</ele>
        <time>2017-05-16T15:06:35Z</time>
      </trkpt>
      <trkpt lat="43.56885" lon="6.17491">
        <ele>374.57</ele>
        <time>2017-05-16T15:06:44Z</time>
      </trkpt>
      <trkpt lat="43.56878" lon="6.17495">
        <ele>374.57</ele>
        <time>2017-05-16T15:06:50Z</time>
      </trkpt>
      <trkpt lat="43.56872" lon="6.17493">
        <ele>375.53</ele>
        <time>2017-05-16T15:06:59Z</time>
      </trkpt>
      <trkpt lat="43.56866" lon="6.17491">
        <ele>376.01</ele>
        <time>2017-05-16T15:07:04Z</time>
      </trkpt>
      <trkpt lat="43.56859" lon="6.17489">
        <ele>376.97</ele>
        <time>2017-05-16T15:07:10Z</time>
      </trkpt>
      <trkpt lat="43.56855" lon="6.17495">
        <ele>378.42</ele>
        <time>2017-05-16T15:07:13Z</time>
      </trkpt>
      <trkpt lat="43.56852" lon="6.17501">
        <ele>377.94</ele>
        <time>2017-05-16T15:07:16Z</time>
      </trkpt>
      <trkpt lat="43.56851" lon="6.17507">
        <ele>377.45</ele>
        <time>2017-05-16T15:07:19Z</time>
      </trkpt>
      <trkpt lat="43.56844" lon="6.17521">
        <ele>377.45</ele>
        <time>2017-05-16T15:07:29Z</time>
      </trkpt>
      <trkpt lat="43.56843" lon="6.17525">
        <ele>377.45</ele>
        <time>2017-05-16T15:07:32Z</time>
      </trkpt>
      <trkpt lat="43.56843" lon="6.17534">
        <ele>376.97</ele>
        <time>2017-05-16T15:07:38Z</time>
      </trkpt>
      <trkpt lat="43.56839" lon="6.1755">
        <ele>376.97</ele>
        <time>2017-05-16T15:07:49Z</time>
      </trkpt>
      <trkpt lat="43.56838" lon="6.17554">
        <ele>377.45</ele>
        <time>2017-05-16T15:07:52Z</time>
      </trkpt>
      <trkpt lat="43.56837" lon="6.17559">
        <ele>377.45</ele>
        <time>2017-05-16T15:07:55Z</time>
      </trkpt>
      <trkpt lat="43.56834" lon="6.17579">
        <ele>377.45</ele>
        <time>2017-05-16T15:08:09Z</time>
      </trkpt>
      <trkpt lat="43.56833" lon="6.17582">
        <ele>376.97</ele>
        <time>2017-05-16T15:08:11Z</time>
      </trkpt>
      <trkpt lat="43.56833" lon="6.17585">
        <ele>377.45</ele>
        <time>2017-05-16T15:08:13Z</time>
      </trkpt>
      <trkpt lat="43.56832" lon="6.17601">
        <ele>377.45</ele>
        <time>2017-05-16T15:08:24Z</time>
      </trkpt>
      <trkpt lat="43.56833" lon="6.17609">
        <ele>377.45</ele>
        <time>2017-05-16T15:08:31Z</time>
      </trkpt>
      <trkpt lat="43.56833" lon="6.17613">
        <ele>376.97</ele>
        <time>2017-05-16T15:08:33Z</time>
      </trkpt>
      <trkpt lat="43.56831" lon="6.17628">
        <ele>376.97</ele>
        <time>2017-05-16T15:08:44Z</time>
      </trkpt>
      <trkpt lat="43.56831" lon="6.17632">
        <ele>376.97</ele>
        <time>2017-05-16T15:08:47Z</time>
      </trkpt>
      <trkpt lat="43.56834" lon="6.17645">
        <ele>376.97</ele>
        <time>2017-05-16T15:08:58Z</time>
      </trkpt>
      <trkpt lat="43.56834" lon="6.17646">
        <ele>376.97</ele>
        <time>2017-05-16T15:08:59Z</time>
      </trkpt>
      <trkpt lat="43.56834" lon="6.17655">
        <ele>376.97</ele>
        <time>2017-05-16T15:09:05Z</time>
      </trkpt>
      <trkpt lat="43.56836" lon="6.17666">
        <ele>376.97</ele>
        <time>2017-05-16T15:09:16Z</time>
      </trkpt>
      <trkpt lat="43.56836" lon="6.17671">
        <ele>376.97</ele>
        <time>2017-05-16T15:09:20Z</time>
      </trkpt>
      <trkpt lat="43.56837" lon="6.17689">
        <ele>376.49</ele>
        <time>2017-05-16T15:09:31Z</time>
      </trkpt>
      <trkpt lat="43.56842" lon="6.17703">
        <ele>376.49</ele>
        <time>2017-05-16T15:09:41Z</time>
      </trkpt>
      <trkpt lat="43.56848" lon="6.17716">
        <ele>376.01</ele>
        <time>2017-05-16T15:09:54Z</time>
      </trkpt>
      <trkpt lat="43.56851" lon="6.17724">
        <ele>376.01</ele>
        <time>2017-05-16T15:10:04Z</time>
      </trkpt>
      <trkpt lat="43.56854" lon="6.17728">
        <ele>376.01</ele>
        <time>2017-05-16T15:10:10Z</time>
      </trkpt>
      <trkpt lat="43.56856" lon="6.1774">
        <ele>375.53</ele>
        <time>2017-05-16T15:10:21Z</time>
      </trkpt>
      <trkpt lat="43.56858" lon="6.17743">
        <ele>375.53</ele>
        <time>2017-05-16T15:10:25Z</time>
      </trkpt>
      <trkpt lat="43.56861" lon="6.17752">
        <ele>375.53</ele>
        <time>2017-05-16T15:10:34Z</time>
      </trkpt>
      <trkpt lat="43.56863" lon="6.17755">
        <ele>375.05</ele>
        <time>2017-05-16T15:10:37Z</time>
      </trkpt>
      <trkpt lat="43.56873" lon="6.17773">
        <ele>375.53</ele>
        <time>2017-05-16T15:10:49Z</time>
      </trkpt>
      <trkpt lat="43.56878" lon="6.17782">
        <ele>375.05</ele>
        <time>2017-05-16T15:10:58Z</time>
      </trkpt>
      <trkpt lat="43.56881" lon="6.17789">
        <ele>375.05</ele>
        <time>2017-05-16T15:11:03Z</time>
      </trkpt>
      <trkpt lat="43.56887" lon="6.17805">
        <ele>374.57</ele>
        <time>2017-05-16T15:11:16Z</time>
      </trkpt>
      <trkpt lat="43.56894" lon="6.17816">
        <ele>374.57</ele>
        <time>2017-05-16T15:11:26Z</time>
      </trkpt>
      <trkpt lat="43.56895" lon="6.17818">
        <ele>374.57</ele>
        <time>2017-05-16T15:11:28Z</time>
      </trkpt>
      <trkpt lat="43.56897" lon="6.17824">
        <ele>374.09</ele>
        <time>2017-05-16T15:11:34Z</time>
      </trkpt>
      <trkpt lat="43.56901" lon="6.17838">
        <ele>373.61</ele>
        <time>2017-05-16T15:11:44Z</time>
      </trkpt>
      <trkpt lat="43.56903" lon="6.17846">
        <ele>373.13</ele>
        <time>2017-05-16T15:11:54Z</time>
      </trkpt>
      <trkpt lat="43.56905" lon="6.17847">
        <ele>373.61</ele>
        <time>2017-05-16T15:12:09Z</time>
      </trkpt>
      <trkpt lat="43.56907" lon="6.17858">
        <ele>373.61</ele>
        <time>2017-05-16T15:12:17Z</time>
      </trkpt>
      <trkpt lat="43.56907" lon="6.17859">
        <ele>373.61</ele>
        <time>2017-05-16T15:12:18Z</time>
      </trkpt>
      <trkpt lat="43.56912" lon="6.17872">
        <ele>373.61</ele>
        <time>2017-05-16T15:12:29Z</time>
      </trkpt>
      <trkpt lat="43.56916" lon="6.17885">
        <ele>373.13</ele>
        <time>2017-05-16T15:12:39Z</time>
      </trkpt>
      <trkpt lat="43.56919" lon="6.17896">
        <ele>373.13</ele>
        <time>2017-05-16T15:12:48Z</time>
      </trkpt>
      <trkpt lat="43.56921" lon="6.17906">
        <ele>372.65</ele>
        <time>2017-05-16T15:12:57Z</time>
      </trkpt>
      <trkpt lat="43.56922" lon="6.17924">
        <ele>372.65</ele>
        <time>2017-05-16T15:13:10Z</time>
      </trkpt>
      <trkpt lat="43.56922" lon="6.17935">
        <ele>372.65</ele>
        <time>2017-05-16T15:13:21Z</time>
      </trkpt>
      <trkpt lat="43.5692" lon="6.1795">
        <ele>372.17</ele>
        <time>2017-05-16T15:13:31Z</time>
      </trkpt>
      <trkpt lat="43.56922" lon="6.17965">
        <ele>372.17</ele>
        <time>2017-05-16T15:13:41Z</time>
      </trkpt>
      <trkpt lat="43.56922" lon="6.17978">
        <ele>372.17</ele>
        <time>2017-05-16T15:13:50Z</time>
      </trkpt>
      <trkpt lat="43.5692" lon="6.17994">
        <ele>371.69</ele>
        <time>2017-05-16T15:14:02Z</time>
      </trkpt>
      <trkpt lat="43.56915" lon="6.17998">
        <ele>370.73</ele>
        <time>2017-05-16T15:14:11Z</time>
      </trkpt>
      <trkpt lat="43.56914" lon="6.17999">
        <ele>370.24</ele>
        <time>2017-05-16T15:14:12Z</time>
      </trkpt>
      <trkpt lat="43.56904" lon="6.18002">
        <ele>368.8</ele>
        <time>2017-05-16T15:14:22Z</time>
      </trkpt>
      <trkpt lat="43.56904" lon="6.18002">
        <ele>368.8</ele>
        <time>2017-05-16T15:14:23Z</time>
      </trkpt>
      <trkpt lat="43.56902" lon="6.18003">
        <ele>368.8</ele>
        <time>2017-05-16T15:14:26Z</time>
      </trkpt>
      <trkpt lat="43.56892" lon="6.18013">
        <ele>368.32</ele>
        <time>2017-05-16T15:14:37Z</time>
      </trkpt>
      <trkpt lat="43.5689" lon="6.18014">
        <ele>368.32</ele>
        <time>2017-05-16T15:14:39Z</time>
      </trkpt>
      <trkpt lat="43.56887" lon="6.18019">
        <ele>368.32</ele>
        <time>2017-05-16T15:14:45Z</time>
      </trkpt>
      <trkpt lat="43.56884" lon="6.18025">
        <ele>367.84</ele>
        <time>2017-05-16T15:14:55Z</time>
      </trkpt>
      <trkpt lat="43.56882" lon="6.18024">
        <ele>366.88</ele>
        <time>2017-05-16T15:15:08Z</time>
      </trkpt>
      <trkpt lat="43.56876" lon="6.18026">
        <ele>364.96</ele>
        <time>2017-05-16T15:15:18Z</time>
      </trkpt>
      <trkpt lat="43.56869" lon="6.18029">
        <ele>364.96</ele>
        <time>2017-05-16T15:15:26Z</time>
      </trkpt>
      <trkpt lat="43.56864" lon="6.18032">
        <ele>364.96</ele>
        <time>2017-05-16T15:15:35Z</time>
      </trkpt>
      <trkpt lat="43.5686" lon="6.18035">
        <ele>365.44</ele>
        <time>2017-05-16T15:15:44Z</time>
      </trkpt>
      <trkpt lat="43.56853" lon="6.18036">
        <ele>366.4</ele>
        <time>2017-05-16T15:16:00Z</time>
      </trkpt>
      <trkpt lat="43.56845" lon="6.18036">
        <ele>366.88</ele>
        <time>2017-05-16T15:16:09Z</time>
      </trkpt>
      <trkpt lat="43.5684" lon="6.18038">
        <ele>368.32</ele>
        <time>2017-05-16T15:16:17Z</time>
      </trkpt>
      <trkpt lat="43.56837" lon="6.18031">
        <ele>370.24</ele>
        <time>2017-05-16T15:16:31Z</time>
      </trkpt>
      <trkpt lat="43.56829" lon="6.18028">
        <ele>371.69</ele>
        <time>2017-05-16T15:16:41Z</time>
      </trkpt>
      <trkpt lat="43.56818" lon="6.1804">
        <ele>371.69</ele>
        <time>2017-05-16T15:16:53Z</time>
      </trkpt>
      <trkpt lat="43.56817" lon="6.18043">
        <ele>371.69</ele>
        <time>2017-05-16T15:16:55Z</time>
      </trkpt>
      <trkpt lat="43.56812" lon="6.18048">
        <ele>371.69</ele>
        <time>2017-05-16T15:17:04Z</time>
      </trkpt>
      <trkpt lat="43.56809" lon="6.18046">
        <ele>373.13</ele>
        <time>2017-05-16T15:17:13Z</time>
      </trkpt>
      <trkpt lat="43.56806" lon="6.18042">
        <ele>375.05</ele>
        <time>2017-05-16T15:17:23Z</time>
      </trkpt>
      <trkpt lat="43.56802" lon="6.18037">
        <ele>376.49</ele>
        <time>2017-05-16T15:17:35Z</time>
      </trkpt>
      <trkpt lat="43.56794" lon="6.18033">
        <ele>377.45</ele>
        <time>2017-05-16T15:17:44Z</time>
      </trkpt>
      <trkpt lat="43.56787" lon="6.18032">
        <ele>377.94</ele>
        <time>2017-05-16T15:17:53Z</time>
      </trkpt>
      <trkpt lat="43.56779" lon="6.18038">
        <ele>377.94</ele>
        <time>2017-05-16T15:18:01Z</time>
      </trkpt>
      <trkpt lat="43.56774" lon="6.1804">
        <ele>377.94</ele>
        <time>2017-05-16T15:18:10Z</time>
      </trkpt>
      <trkpt lat="43.5677" lon="6.18031">
        <ele>378.42</ele>
        <time>2017-05-16T15:18:20Z</time>
      </trkpt>
      <trkpt lat="43.56766" lon="6.18023">
        <ele>379.38</ele>
        <time>2017-05-16T15:18:30Z</time>
      </trkpt>
      <trkpt lat="43.56758" lon="6.1802">
        <ele>379.38</ele>
        <time>2017-05-16T15:18:40Z</time>
      </trkpt>
      <trkpt lat="43.56756" lon="6.18018">
        <ele>379.86</ele>
        <time>2017-05-16T15:18:42Z</time>
      </trkpt>
      <trkpt lat="43.5675" lon="6.18008">
        <ele>380.34</ele>
        <time>2017-05-16T15:18:52Z</time>
      </trkpt>
      <trkpt lat="43.56748" lon="6.17999">
        <ele>381.3</ele>
        <time>2017-05-16T15:19:02Z</time>
      </trkpt>
      <trkpt lat="43.56746" lon="6.17994">
        <ele>381.3</ele>
        <time>2017-05-16T15:19:07Z</time>
      </trkpt>
      <trkpt lat="43.56742" lon="6.17981">
        <ele>383.22</ele>
        <time>2017-05-16T15:19:19Z</time>
      </trkpt>
      <trkpt lat="43.56741" lon="6.17974">
        <ele>383.22</ele>
        <time>2017-05-16T15:19:27Z</time>
      </trkpt>
      <trkpt lat="43.56735" lon="6.17964">
        <ele>384.66</ele>
        <time>2017-05-16T15:19:38Z</time>
      </trkpt>
      <trkpt lat="43.56733" lon="6.17962">
        <ele>384.66</ele>
        <time>2017-05-16T15:19:51Z</time>
      </trkpt>
      <trkpt lat="43.56731" lon="6.17961">
        <ele>384.66</ele>
        <time>2017-05-16T15:20:07Z</time>
      </trkpt>
      <trkpt lat="43.56731" lon="6.17961">
        <ele>384.66</ele>
        <time>2017-05-16T15:20:29Z</time>
      </trkpt>
      <trkpt lat="43.56731" lon="6.17961">
        <ele>384.66</ele>
        <time>2017-05-16T15:20:39Z</time>
      </trkpt>
      <trkpt lat="43.56731" lon="6.17961">
        <ele>384.66</ele>
        <time>2017-05-16T15:20:55Z</time>
      </trkpt>
      <trkpt lat="43.56732" lon="6.17961">
        <ele>384.66</ele>
        <time>2017-05-16T15:21:03Z</time>
      </trkpt>
      <trkpt lat="43.56731" lon="6.17961">
        <ele>384.66</ele>
        <time>2017-05-16T15:21:18Z</time>
      </trkpt>
      <trkpt lat="43.56732" lon="6.17961">
        <ele>384.66</ele>
        <time>2017-05-16T15:21:33Z</time>
      </trkpt>
      <trkpt lat="43.56732" lon="6.1796">
        <ele>384.66</ele>
        <time>2017-05-16T15:21:54Z</time>
      </trkpt>
      <trkpt lat="43.5673" lon="6.17962">
        <ele>384.18</ele>
        <time>2017-05-16T15:22:04Z</time>
      </trkpt>
      <trkpt lat="43.56731" lon="6.17962">
        <ele>384.18</ele>
        <time>2017-05-16T15:22:14Z</time>
      </trkpt>
      <trkpt lat="43.56731" lon="6.17963">
        <ele>384.18</ele>
        <time>2017-05-16T15:22:31Z</time>
      </trkpt>
      <trkpt lat="43.56732" lon="6.17962">
        <ele>384.18</ele>
        <time>2017-05-16T15:22:41Z</time>
      </trkpt>
      <trkpt lat="43.56735" lon="6.17961">
        <ele>384.66</ele>
        <time>2017-05-16T15:22:51Z</time>
      </trkpt>
      <trkpt lat="43.56738" lon="6.17962">
        <ele>384.66</ele>
        <time>2017-05-16T15:23:00Z</time>
      </trkpt>
      <trkpt lat="43.56739" lon="6.17962">
        <ele>384.66</ele>
        <time>2017-05-16T15:23:12Z</time>
      </trkpt>
      <trkpt lat="43.56738" lon="6.17959">
        <ele>384.66</ele>
        <time>2017-05-16T15:23:23Z</time>
      </trkpt>
      <trkpt lat="43.56739" lon="6.17952">
        <ele>385.15</ele>
        <time>2017-05-16T15:23:29Z</time>
      </trkpt>
      <trkpt lat="43.56737" lon="6.17948">
        <ele>385.15</ele>
        <time>2017-05-16T15:23:39Z</time>
      </trkpt>
      <trkpt lat="43.56738" lon="6.17947">
        <ele>385.63</ele>
        <time>2017-05-16T15:23:58Z</time>
      </trkpt>
      <trkpt lat="43.56738" lon="6.17946">
        <ele>385.63</ele>
        <time>2017-05-16T15:24:16Z</time>
      </trkpt>
      <trkpt lat="43.56738" lon="6.17945">
        <ele>385.63</ele>
        <time>2017-05-16T15:24:34Z</time>
      </trkpt>
      <trkpt lat="43.56738" lon="6.17945">
        <ele>385.63</ele>
        <time>2017-05-16T15:24:45Z</time>
      </trkpt>
      <trkpt lat="43.56738" lon="6.17946">
        <ele>385.15</ele>
        <time>2017-05-16T15:24:59Z</time>
      </trkpt>
      <trkpt lat="43.56736" lon="6.17954">
        <ele>385.15</ele>
        <time>2017-05-16T15:25:07Z</time>
      </trkpt>
      <trkpt lat="43.56738" lon="6.17954">
        <ele>385.15</ele>
        <time>2017-05-16T15:25:18Z</time>
      </trkpt>
      <trkpt lat="43.56738" lon="6.17955">
        <ele>384.66</ele>
        <time>2017-05-16T15:25:30Z</time>
      </trkpt>
    </trkseg>
  </trk>
</gpx>